<?xml version="1.0" encoding="UTF-8" standalone="no" ?>
<gpx xmlns="http://www.topografix.com/GPX/1/1" xmlns:xsi="http://www.w3.org/2001/XMLSchema-instance" xsi:schemaLocation="http://www.topografix.com/GPX/1/1 http://www.topografix.com/GPX/1/1/gpx.xsd" version="1.1" creator="VisuGPX - https://www.visugpx.com">
  <metadata>
    <name> VEIGY GENEVE PT de Carouge Arve Foron</name>
    <desc><![CDATA[
VEIGY GENEVE ARVE v2 HW]]></desc>
  </metadata>
  <trk>
    <name><![CDATA[CURRENT TRACK- 08 OCT 2020 VEIGY GENEVE ARVE]]></name>
    <desc><![CDATA[VEIGY GENEVE ARVE v2 HW]]></desc>
    <trkseg>
      <trkpt lat="46.26834" lon="6.25714">
        <ele>430</ele>
      </trkpt>
      <trkpt lat="46.26824" lon="6.25671">
        <ele>430</ele>
      </trkpt>
      <trkpt lat="46.26841" lon="6.25609">
        <ele>430</ele>
        <time>2020-10-08T09:25:28Z</time>
      </trkpt>
      <trkpt lat="46.26843" lon="6.25577">
        <ele>429.8</ele>
        <time>2020-10-08T09:25:49Z</time>
      </trkpt>
      <trkpt lat="46.26786" lon="6.25528">
        <ele>472.87</ele>
        <time>2020-10-08T09:26:05Z</time>
      </trkpt>
      <trkpt lat="46.2676" lon="6.25484">
        <ele>472.87</ele>
        <time>2020-10-08T09:26:14Z</time>
      </trkpt>
      <trkpt lat="46.26736" lon="6.25438">
        <ele>472.87</ele>
        <time>2020-10-08T09:26:24Z</time>
      </trkpt>
      <trkpt lat="46.26702" lon="6.25404">
        <ele>472.87</ele>
        <time>2020-10-08T09:26:34Z</time>
      </trkpt>
      <trkpt lat="46.2665" lon="6.25359">
        <ele>472.87</ele>
        <time>2020-10-08T09:26:48Z</time>
      </trkpt>
      <trkpt lat="46.26615" lon="6.25327">
        <ele>476.31</ele>
        <time>2020-10-08T09:26:57Z</time>
      </trkpt>
      <trkpt lat="46.26582" lon="6.25297">
        <ele>476.4</ele>
        <time>2020-10-08T09:27:05Z</time>
      </trkpt>
      <trkpt lat="46.2653" lon="6.2526">
        <ele>476.03</ele>
        <time>2020-10-08T09:27:18Z</time>
      </trkpt>
      <trkpt lat="46.26495" lon="6.25259">
        <ele>433</ele>
        <time>2020-10-08T09:39:47Z</time>
      </trkpt>
      <trkpt lat="46.26474" lon="6.25247">
        <ele>476.43</ele>
        <time>2020-10-08T09:40:04Z</time>
      </trkpt>
      <trkpt lat="46.26441" lon="6.25217">
        <ele>476.43</ele>
        <time>2020-10-08T09:40:12Z</time>
      </trkpt>
      <trkpt lat="46.26414" lon="6.25181">
        <ele>476.43</ele>
        <time>2020-10-08T09:40:20Z</time>
      </trkpt>
      <trkpt lat="46.26378" lon="6.25112">
        <ele>476.43</ele>
        <time>2020-10-08T09:40:32Z</time>
      </trkpt>
      <trkpt lat="46.2635" lon="6.25071">
        <ele>476.43</ele>
        <time>2020-10-08T09:40:40Z</time>
      </trkpt>
      <trkpt lat="46.26318" lon="6.25036">
        <ele>476.43</ele>
        <time>2020-10-08T09:40:50Z</time>
      </trkpt>
      <trkpt lat="46.26287" lon="6.25002">
        <ele>476.43</ele>
        <time>2020-10-08T09:40:58Z</time>
      </trkpt>
      <trkpt lat="46.26264" lon="6.24973">
        <ele>432.5</ele>
        <time>2020-10-08T09:41:56Z</time>
      </trkpt>
      <trkpt lat="46.26223" lon="6.24986">
        <ele>432.5</ele>
      </trkpt>
      <trkpt lat="46.26196" lon="6.24966">
        <ele>476.43</ele>
        <time>2020-10-08T09:42:07Z</time>
      </trkpt>
      <trkpt lat="46.2616" lon="6.24944">
        <ele>476.43</ele>
        <time>2020-10-08T09:42:16Z</time>
      </trkpt>
      <trkpt lat="46.26103" lon="6.24918">
        <ele>476.43</ele>
        <time>2020-10-08T09:42:30Z</time>
      </trkpt>
      <trkpt lat="46.26065" lon="6.249">
        <ele>476.43</ele>
        <time>2020-10-08T09:42:38Z</time>
      </trkpt>
      <trkpt lat="46.26024" lon="6.24874">
        <ele>476.43</ele>
        <time>2020-10-08T09:42:46Z</time>
      </trkpt>
      <trkpt lat="46.25984" lon="6.24841">
        <ele>476.43</ele>
        <time>2020-10-08T09:42:54Z</time>
      </trkpt>
      <trkpt lat="46.25922" lon="6.248">
        <ele>476.43</ele>
        <time>2020-10-08T09:43:06Z</time>
      </trkpt>
      <trkpt lat="46.25886" lon="6.24771">
        <ele>476.43</ele>
        <time>2020-10-08T09:43:14Z</time>
      </trkpt>
      <trkpt lat="46.25854" lon="6.24745">
        <ele>476.43</ele>
        <time>2020-10-08T09:43:22Z</time>
      </trkpt>
      <trkpt lat="46.258" lon="6.24704">
        <ele>476.43</ele>
        <time>2020-10-08T09:43:37Z</time>
      </trkpt>
      <trkpt lat="46.25766" lon="6.2468">
        <ele>476.43</ele>
        <time>2020-10-08T09:43:45Z</time>
      </trkpt>
      <trkpt lat="46.25732" lon="6.24653">
        <ele>476.43</ele>
        <time>2020-10-08T09:43:55Z</time>
      </trkpt>
      <trkpt lat="46.25696" lon="6.24622">
        <ele>476.43</ele>
        <time>2020-10-08T09:44:07Z</time>
      </trkpt>
      <trkpt lat="46.25648" lon="6.24571">
        <ele>481.66</ele>
        <time>2020-10-08T09:44:18Z</time>
      </trkpt>
      <trkpt lat="46.25622" lon="6.24531">
        <ele>481.65</ele>
        <time>2020-10-08T09:44:24Z</time>
      </trkpt>
      <trkpt lat="46.25589" lon="6.2449">
        <ele>481.5</ele>
        <time>2020-10-08T09:44:32Z</time>
      </trkpt>
      <trkpt lat="46.25536" lon="6.24439">
        <ele>481.19</ele>
        <time>2020-10-08T09:44:43Z</time>
      </trkpt>
      <trkpt lat="46.25502" lon="6.24409">
        <ele>481.09</ele>
        <time>2020-10-08T09:44:51Z</time>
      </trkpt>
      <trkpt lat="46.25467" lon="6.24379">
        <ele>481.14</ele>
        <time>2020-10-08T09:44:59Z</time>
      </trkpt>
      <trkpt lat="46.25429" lon="6.24349">
        <ele>481.67</ele>
        <time>2020-10-08T09:45:07Z</time>
      </trkpt>
      <trkpt lat="46.25373" lon="6.243">
        <ele>481.94</ele>
        <time>2020-10-08T09:45:19Z</time>
      </trkpt>
      <trkpt lat="46.25337" lon="6.24269">
        <ele>481.94</ele>
        <time>2020-10-08T09:45:27Z</time>
      </trkpt>
      <trkpt lat="46.25302" lon="6.24237">
        <ele>481.94</ele>
        <time>2020-10-08T09:45:46Z</time>
      </trkpt>
      <trkpt lat="46.25246" lon="6.24184">
        <ele>481.94</ele>
        <time>2020-10-08T09:45:59Z</time>
      </trkpt>
      <trkpt lat="46.25208" lon="6.24146">
        <ele>481.94</ele>
        <time>2020-10-08T09:46:07Z</time>
      </trkpt>
      <trkpt lat="46.25172" lon="6.2411">
        <ele>481.94</ele>
        <time>2020-10-08T09:46:14Z</time>
      </trkpt>
      <trkpt lat="46.25141" lon="6.24078">
        <ele>481.94</ele>
        <time>2020-10-08T09:46:20Z</time>
      </trkpt>
      <trkpt lat="46.25089" lon="6.2403">
        <ele>481.94</ele>
        <time>2020-10-08T09:46:30Z</time>
      </trkpt>
      <trkpt lat="46.25052" lon="6.23993">
        <ele>481.94</ele>
        <time>2020-10-08T09:46:38Z</time>
      </trkpt>
      <trkpt lat="46.25016" lon="6.23953">
        <ele>481.94</ele>
        <time>2020-10-08T09:46:46Z</time>
      </trkpt>
      <trkpt lat="46.2497" lon="6.23883">
        <ele>481.94</ele>
        <time>2020-10-08T09:46:58Z</time>
      </trkpt>
      <trkpt lat="46.24943" lon="6.23831">
        <ele>481.94</ele>
        <time>2020-10-08T09:47:06Z</time>
      </trkpt>
      <trkpt lat="46.24916" lon="6.23776">
        <ele>479.16</ele>
        <time>2020-10-08T09:47:14Z</time>
      </trkpt>
      <trkpt lat="46.24891" lon="6.23726">
        <ele>479.04</ele>
        <time>2020-10-08T09:47:23Z</time>
      </trkpt>
      <trkpt lat="46.2486" lon="6.23658">
        <ele>479.05</ele>
        <time>2020-10-08T09:47:40Z</time>
      </trkpt>
      <trkpt lat="46.24843" lon="6.23645">
        <ele>479.69</ele>
        <time>2020-10-08T09:48:10Z</time>
      </trkpt>
      <trkpt lat="46.24812" lon="6.23609">
        <ele>479.72</ele>
        <time>2020-10-08T09:48:19Z</time>
      </trkpt>
      <trkpt lat="46.24762" lon="6.23557">
        <ele>479.72</ele>
        <time>2020-10-08T09:48:33Z</time>
      </trkpt>
      <trkpt lat="46.24728" lon="6.23524">
        <ele>479.72</ele>
        <time>2020-10-08T09:48:43Z</time>
      </trkpt>
      <trkpt lat="46.24696" lon="6.23495">
        <ele>479.72</ele>
        <time>2020-10-08T09:48:52Z</time>
      </trkpt>
      <trkpt lat="46.2468" lon="6.23446">
        <ele>479.72</ele>
        <time>2020-10-08T09:49:03Z</time>
      </trkpt>
      <trkpt lat="46.24645" lon="6.2337">
        <ele>484.07</ele>
        <time>2020-10-08T09:49:19Z</time>
      </trkpt>
      <trkpt lat="46.2462" lon="6.23325">
        <ele>483.89</ele>
        <time>2020-10-08T09:49:26Z</time>
      </trkpt>
      <trkpt lat="46.24602" lon="6.23275">
        <ele>483.18</ele>
        <time>2020-10-08T09:49:32Z</time>
      </trkpt>
      <trkpt lat="46.24591" lon="6.23187">
        <ele>481.93</ele>
        <time>2020-10-08T09:49:43Z</time>
      </trkpt>
      <trkpt lat="46.24573" lon="6.23135">
        <ele>481.98</ele>
        <time>2020-10-08T09:49:53Z</time>
      </trkpt>
      <trkpt lat="46.24551" lon="6.23089">
        <ele>482.59</ele>
        <time>2020-10-08T09:50:01Z</time>
      </trkpt>
      <trkpt lat="46.24524" lon="6.23034">
        <ele>482.62</ele>
        <time>2020-10-08T09:50:09Z</time>
      </trkpt>
      <trkpt lat="46.24486" lon="6.22963">
        <ele>481.91</ele>
        <time>2020-10-08T09:50:21Z</time>
      </trkpt>
      <trkpt lat="46.24462" lon="6.22918">
        <ele>481.4</ele>
        <time>2020-10-08T09:50:29Z</time>
      </trkpt>
      <trkpt lat="46.24441" lon="6.22865">
        <ele>481.09</ele>
        <time>2020-10-08T09:50:37Z</time>
      </trkpt>
      <trkpt lat="46.24419" lon="6.22786">
        <ele>481.19</ele>
        <time>2020-10-08T09:50:49Z</time>
      </trkpt>
      <trkpt lat="46.24403" lon="6.22728">
        <ele>481.37</ele>
        <time>2020-10-08T09:50:57Z</time>
      </trkpt>
      <trkpt lat="46.24383" lon="6.22679">
        <ele>481.12</ele>
        <time>2020-10-08T09:51:03Z</time>
      </trkpt>
      <trkpt lat="46.24356" lon="6.22634">
        <ele>480.19</ele>
        <time>2020-10-08T09:51:09Z</time>
      </trkpt>
      <trkpt lat="46.24315" lon="6.22576">
        <ele>478.81</ele>
        <time>2020-10-08T09:51:28Z</time>
      </trkpt>
      <trkpt lat="46.2428" lon="6.22536">
        <ele>478.77</ele>
        <time>2020-10-08T09:51:36Z</time>
      </trkpt>
      <trkpt lat="46.24248" lon="6.225">
        <ele>478.71</ele>
        <time>2020-10-08T09:51:42Z</time>
      </trkpt>
      <trkpt lat="46.24198" lon="6.22452">
        <ele>478.59</ele>
        <time>2020-10-08T09:51:53Z</time>
      </trkpt>
      <trkpt lat="46.24159" lon="6.22426">
        <ele>477.61</ele>
        <time>2020-10-08T09:52:01Z</time>
      </trkpt>
      <trkpt lat="46.24119" lon="6.22406">
        <ele>477.06</ele>
        <time>2020-10-08T09:52:08Z</time>
      </trkpt>
      <trkpt lat="46.24081" lon="6.22391">
        <ele>476.66</ele>
        <time>2020-10-08T09:52:14Z</time>
      </trkpt>
      <trkpt lat="46.24022" lon="6.22364">
        <ele>476.07</ele>
        <time>2020-10-08T09:52:24Z</time>
      </trkpt>
      <trkpt lat="46.23984" lon="6.22338">
        <ele>475.48</ele>
        <time>2020-10-08T09:52:32Z</time>
      </trkpt>
      <trkpt lat="46.23954" lon="6.22302">
        <ele>475.3</ele>
        <time>2020-10-08T09:52:40Z</time>
      </trkpt>
      <trkpt lat="46.23923" lon="6.22228">
        <ele>476.17</ele>
        <time>2020-10-08T09:52:55Z</time>
      </trkpt>
      <trkpt lat="46.23909" lon="6.22174">
        <ele>477.71</ele>
        <time>2020-10-08T09:53:05Z</time>
      </trkpt>
      <trkpt lat="46.23897" lon="6.22122">
        <ele>479.66</ele>
        <time>2020-10-08T09:53:15Z</time>
      </trkpt>
      <trkpt lat="46.23885" lon="6.22071">
        <ele>481.11</ele>
        <time>2020-10-08T09:53:25Z</time>
      </trkpt>
      <trkpt lat="46.23867" lon="6.21995">
        <ele>483.66</ele>
        <time>2020-10-08T09:53:40Z</time>
      </trkpt>
      <trkpt lat="46.23854" lon="6.2194">
        <ele>485.68</ele>
        <time>2020-10-08T09:53:50Z</time>
      </trkpt>
      <trkpt lat="46.23839" lon="6.21885">
        <ele>487.98</ele>
        <time>2020-10-08T09:54:02Z</time>
      </trkpt>
      <trkpt lat="46.23799" lon="6.21824">
        <ele>493.68</ele>
        <time>2020-10-08T09:54:22Z</time>
      </trkpt>
      <trkpt lat="46.23764" lon="6.21802">
        <ele>496.69</ele>
        <time>2020-10-08T09:54:35Z</time>
      </trkpt>
      <trkpt lat="46.23727" lon="6.21785">
        <ele>499.77</ele>
        <time>2020-10-08T09:54:49Z</time>
      </trkpt>
      <trkpt lat="46.23689" lon="6.21764">
        <ele>502.82</ele>
        <time>2020-10-08T09:55:03Z</time>
      </trkpt>
      <trkpt lat="46.23636" lon="6.21724">
        <ele>507.58</ele>
        <time>2020-10-08T09:55:24Z</time>
      </trkpt>
      <trkpt lat="46.23603" lon="6.21696">
        <ele>509.5</ele>
        <time>2020-10-08T09:55:36Z</time>
      </trkpt>
      <trkpt lat="46.2357" lon="6.21666">
        <ele>510.9</ele>
        <time>2020-10-08T09:55:50Z</time>
      </trkpt>
      <trkpt lat="46.23564" lon="6.21654">
        <ele>512.71</ele>
        <time>2020-10-08T09:56:47Z</time>
      </trkpt>
      <trkpt lat="46.23576" lon="6.21569">
        <ele>513.08</ele>
        <time>2020-10-08T09:57:04Z</time>
      </trkpt>
      <trkpt lat="46.2359" lon="6.21509">
        <ele>512.65</ele>
        <time>2020-10-08T09:57:11Z</time>
      </trkpt>
      <trkpt lat="46.23601" lon="6.21454">
        <ele>511.54</ele>
        <time>2020-10-08T09:57:17Z</time>
      </trkpt>
      <trkpt lat="46.23632" lon="6.21373">
        <ele>510.17</ele>
        <time>2020-10-08T09:57:28Z</time>
      </trkpt>
      <trkpt lat="46.23655" lon="6.21325">
        <ele>509.63</ele>
        <time>2020-10-08T09:57:37Z</time>
      </trkpt>
      <trkpt lat="46.2363" lon="6.21281">
        <ele>509.58</ele>
        <time>2020-10-08T09:57:46Z</time>
      </trkpt>
      <trkpt lat="46.23604" lon="6.21233">
        <ele>510.14</ele>
        <time>2020-10-08T09:57:54Z</time>
      </trkpt>
      <trkpt lat="46.23574" lon="6.21152">
        <ele>510.4</ele>
        <time>2020-10-08T09:58:08Z</time>
      </trkpt>
      <trkpt lat="46.23556" lon="6.21107">
        <ele>510.79</ele>
        <time>2020-10-08T09:58:16Z</time>
      </trkpt>
      <trkpt lat="46.23529" lon="6.2106">
        <ele>512.23</ele>
        <time>2020-10-08T09:58:27Z</time>
      </trkpt>
      <trkpt lat="46.23484" lon="6.21003">
        <ele>513.67</ele>
        <time>2020-10-08T09:58:41Z</time>
      </trkpt>
      <trkpt lat="46.2345" lon="6.20973">
        <ele>514.13</ele>
        <time>2020-10-08T09:58:49Z</time>
      </trkpt>
      <trkpt lat="46.2345" lon="6.20931">
        <ele>514.29</ele>
        <time>2020-10-08T09:59:00Z</time>
      </trkpt>
      <trkpt lat="46.23476" lon="6.20885">
        <ele>515.08</ele>
        <time>2020-10-08T09:59:10Z</time>
      </trkpt>
      <trkpt lat="46.23529" lon="6.20826">
        <ele>516.78</ele>
        <time>2020-10-08T09:59:25Z</time>
      </trkpt>
      <trkpt lat="46.23559" lon="6.20785">
        <ele>517.99</ele>
        <time>2020-10-08T09:59:36Z</time>
      </trkpt>
      <trkpt lat="46.23565" lon="6.20734">
        <ele>517.98</ele>
        <time>2020-10-08T09:59:47Z</time>
      </trkpt>
      <trkpt lat="46.23559" lon="6.20641">
        <ele>516.34</ele>
        <time>2020-10-08T10:00:00Z</time>
      </trkpt>
      <trkpt lat="46.23556" lon="6.2058">
        <ele>515.01</ele>
        <time>2020-10-08T10:00:07Z</time>
      </trkpt>
      <trkpt lat="46.2355" lon="6.20519">
        <ele>513.2</ele>
        <time>2020-10-08T10:00:13Z</time>
      </trkpt>
      <trkpt lat="46.23527" lon="6.20464">
        <ele>510.68</ele>
        <time>2020-10-08T10:00:21Z</time>
      </trkpt>
      <trkpt lat="46.23491" lon="6.20397">
        <ele>506.73</ele>
        <time>2020-10-08T10:01:03Z</time>
      </trkpt>
      <trkpt lat="46.23456" lon="6.20359">
        <ele>507.74</ele>
        <time>2020-10-08T10:01:11Z</time>
      </trkpt>
      <trkpt lat="46.23422" lon="6.20323">
        <ele>507.4</ele>
        <time>2020-10-08T10:01:19Z</time>
      </trkpt>
      <trkpt lat="46.23374" lon="6.20267">
        <ele>506.19</ele>
        <time>2020-10-08T10:01:31Z</time>
      </trkpt>
      <trkpt lat="46.23342" lon="6.20231">
        <ele>505.57</ele>
        <time>2020-10-08T10:01:39Z</time>
      </trkpt>
      <trkpt lat="46.23312" lon="6.20197">
        <ele>505.19</ele>
        <time>2020-10-08T10:01:47Z</time>
      </trkpt>
      <trkpt lat="46.23281" lon="6.20158">
        <ele>505.1</ele>
        <time>2020-10-08T10:01:55Z</time>
      </trkpt>
      <trkpt lat="46.23229" lon="6.20101">
        <ele>505.86</ele>
        <time>2020-10-08T10:02:07Z</time>
      </trkpt>
      <trkpt lat="46.23198" lon="6.20065">
        <ele>507.21</ele>
        <time>2020-10-08T10:02:17Z</time>
      </trkpt>
      <trkpt lat="46.23166" lon="6.20027">
        <ele>508.95</ele>
        <time>2020-10-08T10:02:27Z</time>
      </trkpt>
      <trkpt lat="46.23119" lon="6.19972">
        <ele>511.24</ele>
        <time>2020-10-08T10:02:42Z</time>
      </trkpt>
      <trkpt lat="46.23089" lon="6.19935">
        <ele>512.88</ele>
        <time>2020-10-08T10:02:52Z</time>
      </trkpt>
      <trkpt lat="46.23059" lon="6.19901">
        <ele>514.69</ele>
        <time>2020-10-08T10:03:02Z</time>
      </trkpt>
      <trkpt lat="46.23027" lon="6.19864">
        <ele>516.78</ele>
        <time>2020-10-08T10:03:13Z</time>
      </trkpt>
      <trkpt lat="46.22979" lon="6.19807">
        <ele>519.08</ele>
        <time>2020-10-08T10:03:31Z</time>
      </trkpt>
      <trkpt lat="46.22947" lon="6.1977">
        <ele>520.62</ele>
        <time>2020-10-08T10:03:43Z</time>
      </trkpt>
      <trkpt lat="46.22914" lon="6.19731">
        <ele>522.18</ele>
        <time>2020-10-08T10:03:55Z</time>
      </trkpt>
      <trkpt lat="46.2287" lon="6.19679">
        <ele>524.48</ele>
        <time>2020-10-08T10:04:12Z</time>
      </trkpt>
      <trkpt lat="46.22838" lon="6.19641">
        <ele>526.35</ele>
        <time>2020-10-08T10:04:23Z</time>
      </trkpt>
      <trkpt lat="46.22803" lon="6.19603">
        <ele>527.83</ele>
        <time>2020-10-08T10:04:33Z</time>
      </trkpt>
      <trkpt lat="46.22771" lon="6.19564">
        <ele>529.07</ele>
        <time>2020-10-08T10:04:44Z</time>
      </trkpt>
      <trkpt lat="46.22723" lon="6.19509">
        <ele>530.58</ele>
        <time>2020-10-08T10:04:58Z</time>
      </trkpt>
      <trkpt lat="46.22692" lon="6.19472">
        <ele>531.45</ele>
        <time>2020-10-08T10:05:09Z</time>
      </trkpt>
      <trkpt lat="46.22659" lon="6.19434">
        <ele>532.26</ele>
        <time>2020-10-08T10:05:18Z</time>
      </trkpt>
      <trkpt lat="46.2261" lon="6.19375">
        <ele>533.03</ele>
        <time>2020-10-08T10:05:29Z</time>
      </trkpt>
      <trkpt lat="46.2258" lon="6.19341">
        <ele>533.35</ele>
        <time>2020-10-08T10:05:37Z</time>
      </trkpt>
      <trkpt lat="46.22548" lon="6.19303">
        <ele>533.68</ele>
        <time>2020-10-08T10:05:45Z</time>
      </trkpt>
      <trkpt lat="46.22513" lon="6.19263">
        <ele>534.23</ele>
        <time>2020-10-08T10:05:53Z</time>
      </trkpt>
      <trkpt lat="46.22466" lon="6.19207">
        <ele>534.98</ele>
        <time>2020-10-08T10:06:08Z</time>
      </trkpt>
      <trkpt lat="46.22433" lon="6.19169">
        <ele>535.24</ele>
        <time>2020-10-08T10:06:18Z</time>
      </trkpt>
      <trkpt lat="46.22402" lon="6.19136">
        <ele>535.68</ele>
        <time>2020-10-08T10:06:26Z</time>
      </trkpt>
      <trkpt lat="46.22351" lon="6.19082">
        <ele>536.31</ele>
        <time>2020-10-08T10:06:36Z</time>
      </trkpt>
      <trkpt lat="46.22314" lon="6.19042">
        <ele>536.28</ele>
        <time>2020-10-08T10:06:44Z</time>
      </trkpt>
      <trkpt lat="46.22279" lon="6.18998">
        <ele>535.6</ele>
        <time>2020-10-08T10:06:52Z</time>
      </trkpt>
      <trkpt lat="46.22248" lon="6.18955">
        <ele>534.32</ele>
        <time>2020-10-08T10:06:59Z</time>
      </trkpt>
      <trkpt lat="46.222" lon="6.18897">
        <ele>532.69</ele>
        <time>2020-10-08T10:07:08Z</time>
      </trkpt>
      <trkpt lat="46.22162" lon="6.18856">
        <ele>530.9</ele>
        <time>2020-10-08T10:07:14Z</time>
      </trkpt>
      <trkpt lat="46.22125" lon="6.18818">
        <ele>528.89</ele>
        <time>2020-10-08T10:07:19Z</time>
      </trkpt>
      <trkpt lat="46.22077" lon="6.18768">
        <ele>526.01</ele>
        <time>2020-10-08T10:07:25Z</time>
      </trkpt>
      <trkpt lat="46.22043" lon="6.18731">
        <ele>523.11</ele>
        <time>2020-10-08T10:07:30Z</time>
      </trkpt>
      <trkpt lat="46.22009" lon="6.18685">
        <ele>519.57</ele>
        <time>2020-10-08T10:07:36Z</time>
      </trkpt>
      <trkpt lat="46.21981" lon="6.18633">
        <ele>516.88</ele>
        <time>2020-10-08T10:07:41Z</time>
      </trkpt>
      <trkpt lat="46.21943" lon="6.18554">
        <ele>512.31</ele>
        <time>2020-10-08T10:07:48Z</time>
      </trkpt>
      <trkpt lat="46.21926" lon="6.18506">
        <ele>509.76</ele>
        <time>2020-10-08T10:07:52Z</time>
      </trkpt>
      <trkpt lat="46.21905" lon="6.1846">
        <ele>507.06</ele>
        <time>2020-10-08T10:07:56Z</time>
      </trkpt>
      <trkpt lat="46.21845" lon="6.18403">
        <ele>503.05</ele>
        <time>2020-10-08T10:08:04Z</time>
      </trkpt>
      <trkpt lat="46.21802" lon="6.18373">
        <ele>501.32</ele>
        <time>2020-10-08T10:08:10Z</time>
      </trkpt>
      <trkpt lat="46.21761" lon="6.18346">
        <ele>499.9</ele>
        <time>2020-10-08T10:08:16Z</time>
      </trkpt>
      <trkpt lat="46.21731" lon="6.18295">
        <ele>498.16</ele>
        <time>2020-10-08T10:08:22Z</time>
      </trkpt>
      <trkpt lat="46.21677" lon="6.18222">
        <ele>495.46</ele>
        <time>2020-10-08T10:08:31Z</time>
      </trkpt>
      <trkpt lat="46.21644" lon="6.18175">
        <ele>492.8</ele>
        <time>2020-10-08T10:08:37Z</time>
      </trkpt>
      <trkpt lat="46.21613" lon="6.18126">
        <ele>490.01</ele>
        <time>2020-10-08T10:08:43Z</time>
      </trkpt>
      <trkpt lat="46.21573" lon="6.18063">
        <ele>484.94</ele>
        <time>2020-10-08T10:08:53Z</time>
      </trkpt>
      <trkpt lat="46.2154" lon="6.18025">
        <ele>483.1</ele>
        <time>2020-10-08T10:08:59Z</time>
      </trkpt>
      <trkpt lat="46.21496" lon="6.17995">
        <ele>480.95</ele>
        <time>2020-10-08T10:09:05Z</time>
      </trkpt>
      <trkpt lat="46.21459" lon="6.17948">
        <ele>478.44</ele>
        <time>2020-10-08T10:09:11Z</time>
      </trkpt>
      <trkpt lat="46.21421" lon="6.1788">
        <ele>475.13</ele>
        <time>2020-10-08T10:09:17Z</time>
      </trkpt>
      <trkpt lat="46.21395" lon="6.17845">
        <ele>472.03</ele>
        <time>2020-10-08T10:09:22Z</time>
      </trkpt>
      <trkpt lat="46.21362" lon="6.17802">
        <ele>467.13</ele>
        <time>2020-10-08T10:09:29Z</time>
      </trkpt>
      <trkpt lat="46.21313" lon="6.17726">
        <ele>461.18</ele>
        <time>2020-10-08T10:09:37Z</time>
      </trkpt>
      <trkpt lat="46.21284" lon="6.17681">
        <ele>458.3</ele>
        <time>2020-10-08T10:09:41Z</time>
      </trkpt>
      <trkpt lat="46.21256" lon="6.17639">
        <ele>455.69</ele>
        <time>2020-10-08T10:09:45Z</time>
      </trkpt>
      <trkpt lat="46.21229" lon="6.176">
        <ele>452.91</ele>
        <time>2020-10-08T10:09:49Z</time>
      </trkpt>
      <trkpt lat="46.21179" lon="6.17527">
        <ele>446.24</ele>
        <time>2020-10-08T10:09:57Z</time>
      </trkpt>
      <trkpt lat="46.21148" lon="6.17477">
        <ele>440.53</ele>
        <time>2020-10-08T10:10:03Z</time>
      </trkpt>
      <trkpt lat="46.21133" lon="6.17423">
        <ele>433.88</ele>
        <time>2020-10-08T10:10:09Z</time>
      </trkpt>
      <trkpt lat="46.21162" lon="6.17326">
        <ele>425.93</ele>
        <time>2020-10-08T10:10:18Z</time>
      </trkpt>
      <trkpt lat="46.21187" lon="6.17275">
        <ele>420.04</ele>
        <time>2020-10-08T10:11:53Z</time>
      </trkpt>
      <trkpt lat="46.21173" lon="6.17218">
        <ele>420.04</ele>
        <time>2020-10-08T10:12:01Z</time>
      </trkpt>
      <trkpt lat="46.21152" lon="6.17174">
        <ele>420.04</ele>
        <time>2020-10-08T10:12:11Z</time>
      </trkpt>
      <trkpt lat="46.21115" lon="6.17093">
        <ele>420.04</ele>
        <time>2020-10-08T10:12:24Z</time>
      </trkpt>
      <trkpt lat="46.21091" lon="6.1704">
        <ele>420.04</ele>
        <time>2020-10-08T10:12:32Z</time>
      </trkpt>
      <trkpt lat="46.2107" lon="6.16994">
        <ele>420.04</ele>
        <time>2020-10-08T10:12:40Z</time>
      </trkpt>
      <trkpt lat="46.21036" lon="6.16916">
        <ele>420.04</ele>
        <time>2020-10-08T10:12:52Z</time>
      </trkpt>
      <trkpt lat="46.21019" lon="6.16867">
        <ele>420.04</ele>
        <time>2020-10-08T10:13:01Z</time>
      </trkpt>
      <trkpt lat="46.21" lon="6.16817">
        <ele>420.04</ele>
        <time>2020-10-08T10:13:12Z</time>
      </trkpt>
      <trkpt lat="46.20976" lon="6.16763">
        <ele>420.04</ele>
        <time>2020-10-08T10:13:22Z</time>
      </trkpt>
      <trkpt lat="46.20938" lon="6.16681">
        <ele>420.04</ele>
        <time>2020-10-08T10:13:36Z</time>
      </trkpt>
      <trkpt lat="46.20918" lon="6.16636">
        <ele>420.04</ele>
        <time>2020-10-08T10:13:44Z</time>
      </trkpt>
      <trkpt lat="46.20892" lon="6.16583">
        <ele>420.04</ele>
        <time>2020-10-08T10:13:52Z</time>
      </trkpt>
      <trkpt lat="46.2086" lon="6.16507">
        <ele>420.04</ele>
        <time>2020-10-08T10:14:05Z</time>
      </trkpt>
      <trkpt lat="46.20834" lon="6.16452">
        <ele>420.04</ele>
        <time>2020-10-08T10:14:15Z</time>
      </trkpt>
      <trkpt lat="46.20814" lon="6.16399">
        <ele>420.04</ele>
        <time>2020-10-08T10:14:24Z</time>
      </trkpt>
      <trkpt lat="46.20798" lon="6.16341">
        <ele>420.04</ele>
        <time>2020-10-08T10:14:32Z</time>
      </trkpt>
      <trkpt lat="46.20781" lon="6.16253">
        <ele>420.04</ele>
        <time>2020-10-08T10:14:46Z</time>
      </trkpt>
      <trkpt lat="46.20762" lon="6.162">
        <ele>420.04</ele>
        <time>2020-10-08T10:14:54Z</time>
      </trkpt>
      <trkpt lat="46.20739" lon="6.16149">
        <ele>420.04</ele>
        <time>2020-10-08T10:15:02Z</time>
      </trkpt>
      <trkpt lat="46.20703" lon="6.16069">
        <ele>420.04</ele>
        <time>2020-10-08T10:15:15Z</time>
      </trkpt>
      <trkpt lat="46.20678" lon="6.16018">
        <ele>420.04</ele>
        <time>2020-10-08T10:15:23Z</time>
      </trkpt>
      <trkpt lat="46.20653" lon="6.15966">
        <ele>420.04</ele>
        <time>2020-10-08T10:15:33Z</time>
      </trkpt>
      <trkpt lat="46.2063" lon="6.15918">
        <ele>420.04</ele>
        <time>2020-10-08T10:15:43Z</time>
      </trkpt>
      <trkpt lat="46.20592" lon="6.15836">
        <ele>420.04</ele>
        <time>2020-10-08T10:15:58Z</time>
      </trkpt>
      <trkpt lat="46.20563" lon="6.15785">
        <ele>420.04</ele>
        <time>2020-10-08T10:16:06Z</time>
      </trkpt>
      <trkpt lat="46.20538" lon="6.15727">
        <ele>420.04</ele>
        <time>2020-10-08T10:16:18Z</time>
      </trkpt>
      <trkpt lat="46.20503" lon="6.15649">
        <ele>420.04</ele>
        <time>2020-10-08T10:16:30Z</time>
      </trkpt>
      <trkpt lat="46.20476" lon="6.15597">
        <ele>420.04</ele>
        <time>2020-10-08T10:16:40Z</time>
      </trkpt>
      <trkpt lat="46.20453" lon="6.15549">
        <ele>420.04</ele>
        <time>2020-10-08T10:16:50Z</time>
      </trkpt>
      <trkpt lat="46.20431" lon="6.155">
        <ele>420.04</ele>
        <time>2020-10-08T10:16:58Z</time>
      </trkpt>
      <trkpt lat="46.20388" lon="6.15518">
        <ele>375</ele>
        <time>2020-10-08T10:17:12Z</time>
      </trkpt>
      <trkpt lat="46.20344" lon="6.15536">
        <ele>376</ele>
        <time>2020-10-08T10:17:20Z</time>
      </trkpt>
      <trkpt lat="46.20301" lon="6.1553">
        <ele>376</ele>
        <time>2020-10-08T10:17:30Z</time>
      </trkpt>
      <trkpt lat="46.20272" lon="6.15511">
        <ele>376.2</ele>
        <time>2020-10-08T10:17:44Z</time>
      </trkpt>
      <trkpt lat="46.20253" lon="6.15503">
        <ele>376.9</ele>
        <time>2020-10-08T10:17:52Z</time>
      </trkpt>
      <trkpt lat="46.20188" lon="6.15476">
        <ele>378.2</ele>
        <time>2020-10-08T10:18:03Z</time>
      </trkpt>
      <trkpt lat="46.20114" lon="6.15446">
        <ele>379.9</ele>
        <time>2020-10-08T10:18:36Z</time>
      </trkpt>
      <trkpt lat="46.20056" lon="6.15413">
        <ele>383</ele>
        <time>2020-10-08T10:18:55Z</time>
      </trkpt>
      <trkpt lat="46.20009" lon="6.15343">
        <ele>386.6</ele>
        <time>2020-10-08T10:19:05Z</time>
      </trkpt>
      <trkpt lat="46.19965" lon="6.15279">
        <ele>391.4</ele>
        <time>2020-10-08T10:19:17Z</time>
      </trkpt>
      <trkpt lat="46.19926" lon="6.1523">
        <ele>393.9</ele>
        <time>2020-10-08T10:19:28Z</time>
      </trkpt>
      <trkpt lat="46.19884" lon="6.15167">
        <ele>392.2</ele>
        <time>2020-10-08T10:19:36Z</time>
      </trkpt>
      <trkpt lat="46.19847" lon="6.15106">
        <ele>393</ele>
        <time>2020-10-08T10:19:44Z</time>
      </trkpt>
      <trkpt lat="46.19788" lon="6.15028">
        <ele>396</ele>
        <time>2020-10-08T10:19:52Z</time>
      </trkpt>
      <trkpt lat="46.19738" lon="6.14954">
        <ele>391.3</ele>
        <time>2020-10-08T10:21:39Z</time>
      </trkpt>
      <trkpt lat="46.19648" lon="6.14841">
        <ele>389.3</ele>
        <time>2020-10-08T10:41:26Z</time>
      </trkpt>
      <trkpt lat="46.1966" lon="6.14669">
        <ele>383.3</ele>
      </trkpt>
      <trkpt lat="46.19629" lon="6.14661">
        <ele>384.5</ele>
      </trkpt>
      <trkpt lat="46.19606" lon="6.14655">
        <ele>385.7</ele>
      </trkpt>
      <trkpt lat="46.19588" lon="6.14621">
        <ele>384.2</ele>
      </trkpt>
      <trkpt lat="46.19527" lon="6.14696">
        <ele>387</ele>
      </trkpt>
      <trkpt lat="46.19434" lon="6.14799">
        <ele>384.9</ele>
        <time>2020-10-08T10:41:36Z</time>
      </trkpt>
      <trkpt lat="46.19255" lon="6.1469">
        <ele>379.3</ele>
        <time>2020-10-08T10:41:51Z</time>
      </trkpt>
      <trkpt lat="46.19193" lon="6.14651">
        <ele>379</ele>
        <time>2020-10-08T10:42:01Z</time>
      </trkpt>
      <trkpt lat="46.1915" lon="6.14619">
        <ele>379</ele>
        <time>2020-10-08T10:42:11Z</time>
      </trkpt>
      <trkpt lat="46.19095" lon="6.14583">
        <ele>379</ele>
        <time>2020-10-08T10:42:53Z</time>
      </trkpt>
      <trkpt lat="46.19038" lon="6.14552">
        <ele>379</ele>
        <time>2020-10-08T10:43:08Z</time>
      </trkpt>
      <trkpt lat="46.18734" lon="6.14409">
        <ele>376.9</ele>
        <time>2020-10-08T10:43:26Z</time>
      </trkpt>
      <trkpt lat="46.18767" lon="6.14313">
        <ele>376.9</ele>
      </trkpt>
      <trkpt lat="46.18819" lon="6.14248">
        <ele>378.6</ele>
        <time>2020-10-08T10:43:38Z</time>
      </trkpt>
      <trkpt lat="46.18802" lon="6.14177">
        <ele>373.1</ele>
        <time>2020-10-08T10:43:55Z</time>
      </trkpt>
      <trkpt lat="46.18795" lon="6.14143">
        <ele>426.09</ele>
        <time>2020-10-08T10:44:40Z</time>
      </trkpt>
      <trkpt lat="46.18758" lon="6.14173">
        <ele>426.1</ele>
        <time>2020-10-08T10:44:52Z</time>
      </trkpt>
      <trkpt lat="46.18713" lon="6.14241">
        <ele>424.54</ele>
        <time>2020-10-08T10:45:11Z</time>
      </trkpt>
      <trkpt lat="46.18687" lon="6.14302">
        <ele>423.83</ele>
        <time>2020-10-08T10:45:25Z</time>
      </trkpt>
      <trkpt lat="46.18672" lon="6.1436">
        <ele>423.63</ele>
        <time>2020-10-08T10:45:38Z</time>
      </trkpt>
      <trkpt lat="46.18658" lon="6.14424">
        <ele>424.01</ele>
        <time>2020-10-08T10:45:51Z</time>
      </trkpt>
      <trkpt lat="46.18643" lon="6.14522">
        <ele>423.88</ele>
        <time>2020-10-08T10:46:06Z</time>
      </trkpt>
      <trkpt lat="46.18632" lon="6.14584">
        <ele>423.04</ele>
        <time>2020-10-08T10:46:18Z</time>
      </trkpt>
      <trkpt lat="46.18646" lon="6.14639">
        <ele>423.23</ele>
        <time>2020-10-08T10:46:30Z</time>
      </trkpt>
      <trkpt lat="46.18647" lon="6.14746">
        <ele>423.94</ele>
        <time>2020-10-08T10:47:03Z</time>
      </trkpt>
      <trkpt lat="46.18647" lon="6.14814">
        <ele>424.21</ele>
        <time>2020-10-08T10:47:16Z</time>
      </trkpt>
      <trkpt lat="46.1865" lon="6.14884">
        <ele>424.16</ele>
        <time>2020-10-08T10:47:27Z</time>
      </trkpt>
      <trkpt lat="46.18643" lon="6.14948">
        <ele>424.44</ele>
        <time>2020-10-08T10:47:40Z</time>
      </trkpt>
      <trkpt lat="46.18641" lon="6.15052">
        <ele>424.91</ele>
        <time>2020-10-08T10:47:52Z</time>
      </trkpt>
      <trkpt lat="46.18602" lon="6.15071">
        <ele>424.7</ele>
        <time>2020-10-08T10:48:39Z</time>
      </trkpt>
      <trkpt lat="46.18563" lon="6.15066">
        <ele>424.7</ele>
        <time>2020-10-08T10:48:47Z</time>
      </trkpt>
      <trkpt lat="46.18504" lon="6.15041">
        <ele>424.7</ele>
        <time>2020-10-08T10:49:03Z</time>
      </trkpt>
      <trkpt lat="46.18467" lon="6.15034">
        <ele>428.12</ele>
        <time>2020-10-08T10:50:00Z</time>
      </trkpt>
      <trkpt lat="46.1845" lon="6.15086">
        <ele>428.64</ele>
        <time>2020-10-08T10:50:27Z</time>
      </trkpt>
      <trkpt lat="46.18428" lon="6.15124">
        <ele>428.64</ele>
        <time>2020-10-08T10:50:40Z</time>
      </trkpt>
      <trkpt lat="46.18396" lon="6.15195">
        <ele>428.64</ele>
        <time>2020-10-08T10:50:57Z</time>
      </trkpt>
      <trkpt lat="46.18378" lon="6.15249">
        <ele>428.64</ele>
        <time>2020-10-08T10:51:07Z</time>
      </trkpt>
      <trkpt lat="46.18359" lon="6.15299">
        <ele>428.64</ele>
        <time>2020-10-08T10:51:19Z</time>
      </trkpt>
      <trkpt lat="46.18336" lon="6.15374">
        <ele>428.64</ele>
        <time>2020-10-08T10:51:37Z</time>
      </trkpt>
      <trkpt lat="46.18317" lon="6.15429">
        <ele>428.64</ele>
        <time>2020-10-08T10:51:45Z</time>
      </trkpt>
      <trkpt lat="46.18303" lon="6.15462">
        <ele>381.3</ele>
        <time>2020-10-08T10:52:32Z</time>
      </trkpt>
      <trkpt lat="46.18253" lon="6.15444">
        <ele>428.64</ele>
        <time>2020-10-08T10:52:55Z</time>
      </trkpt>
      <trkpt lat="46.18193" lon="6.15431">
        <ele>428.64</ele>
        <time>2020-10-08T10:53:30Z</time>
      </trkpt>
      <trkpt lat="46.18151" lon="6.1542">
        <ele>428.64</ele>
        <time>2020-10-08T10:53:44Z</time>
      </trkpt>
      <trkpt lat="46.1811" lon="6.15408">
        <ele>428.64</ele>
        <time>2020-10-08T10:53:56Z</time>
      </trkpt>
      <trkpt lat="46.18051" lon="6.15418">
        <ele>428.64</ele>
        <time>2020-10-08T10:54:21Z</time>
      </trkpt>
      <trkpt lat="46.18006" lon="6.15438">
        <ele>428.64</ele>
        <time>2020-10-08T10:54:31Z</time>
      </trkpt>
      <trkpt lat="46.17964" lon="6.15462">
        <ele>428.64</ele>
        <time>2020-10-08T10:54:41Z</time>
      </trkpt>
      <trkpt lat="46.17924" lon="6.15482">
        <ele>428.64</ele>
        <time>2020-10-08T10:54:49Z</time>
      </trkpt>
      <trkpt lat="46.1788" lon="6.15543">
        <ele>428.64</ele>
        <time>2020-10-08T10:55:05Z</time>
      </trkpt>
      <trkpt lat="46.17862" lon="6.15605">
        <ele>428.64</ele>
        <time>2020-10-08T10:55:12Z</time>
      </trkpt>
      <trkpt lat="46.17846" lon="6.15665">
        <ele>428.64</ele>
        <time>2020-10-08T10:55:20Z</time>
      </trkpt>
      <trkpt lat="46.17827" lon="6.15755">
        <ele>428.64</ele>
        <time>2020-10-08T10:55:35Z</time>
      </trkpt>
      <trkpt lat="46.17843" lon="6.15809">
        <ele>428.64</ele>
        <time>2020-10-08T10:55:48Z</time>
      </trkpt>
      <trkpt lat="46.17871" lon="6.15859">
        <ele>428.64</ele>
        <time>2020-10-08T10:55:58Z</time>
      </trkpt>
      <trkpt lat="46.17904" lon="6.15889">
        <ele>428.64</ele>
        <time>2020-10-08T10:56:07Z</time>
      </trkpt>
      <trkpt lat="46.17966" lon="6.15906">
        <ele>428.64</ele>
        <time>2020-10-08T10:56:23Z</time>
      </trkpt>
      <trkpt lat="46.18008" lon="6.15908">
        <ele>428.64</ele>
        <time>2020-10-08T10:56:31Z</time>
      </trkpt>
      <trkpt lat="46.1805" lon="6.15922">
        <ele>428.64</ele>
        <time>2020-10-08T10:56:39Z</time>
      </trkpt>
      <trkpt lat="46.18115" lon="6.15936">
        <ele>385.1</ele>
        <time>2020-10-08T10:56:55Z</time>
      </trkpt>
      <trkpt lat="46.18105" lon="6.1599">
        <ele>379.9</ele>
        <time>2020-10-08T10:57:14Z</time>
      </trkpt>
      <trkpt lat="46.18095" lon="6.16059">
        <ele>386</ele>
        <time>2020-10-08T10:57:25Z</time>
      </trkpt>
      <trkpt lat="46.18097" lon="6.16099">
        <ele>387.7</ele>
        <time>2020-10-08T10:57:36Z</time>
      </trkpt>
      <trkpt lat="46.1813" lon="6.16168">
        <ele>387.8</ele>
        <time>2020-10-08T10:57:46Z</time>
      </trkpt>
      <trkpt lat="46.18148" lon="6.162">
        <ele>387.8</ele>
        <time>2020-10-08T10:57:56Z</time>
      </trkpt>
      <trkpt lat="46.18192" lon="6.16282">
        <ele>388.4</ele>
        <time>2020-10-08T10:58:04Z</time>
      </trkpt>
      <trkpt lat="46.18204" lon="6.16314">
        <ele>388.4</ele>
        <time>2020-10-08T10:58:19Z</time>
      </trkpt>
      <trkpt lat="46.18165" lon="6.16454">
        <ele>402.4</ele>
        <time>2020-10-08T10:58:28Z</time>
      </trkpt>
      <trkpt lat="46.18144" lon="6.16536">
        <ele>455.34</ele>
        <time>2020-10-08T11:12:20Z</time>
      </trkpt>
      <trkpt lat="46.18127" lon="6.1659">
        <ele>456.21</ele>
        <time>2020-10-08T11:12:28Z</time>
      </trkpt>
      <trkpt lat="46.18112" lon="6.16644">
        <ele>411</ele>
      </trkpt>
      <trkpt lat="46.18089" lon="6.16621">
        <ele>457.77</ele>
        <time>2020-10-08T11:12:42Z</time>
      </trkpt>
      <trkpt lat="46.18052" lon="6.16591">
        <ele>458.2</ele>
        <time>2020-10-08T11:12:50Z</time>
      </trkpt>
      <trkpt lat="46.18018" lon="6.16563">
        <ele>458.79</ele>
        <time>2020-10-08T11:12:56Z</time>
      </trkpt>
      <trkpt lat="46.17965" lon="6.16519">
        <ele>459.42</ele>
        <time>2020-10-08T11:13:09Z</time>
      </trkpt>
      <trkpt lat="46.1793" lon="6.16514">
        <ele>460.46</ele>
        <time>2020-10-08T11:13:20Z</time>
      </trkpt>
      <trkpt lat="46.17919" lon="6.16576">
        <ele>460.8</ele>
        <time>2020-10-08T11:13:29Z</time>
      </trkpt>
      <trkpt lat="46.1789" lon="6.16604">
        <ele>460.76</ele>
        <time>2020-10-08T11:13:41Z</time>
      </trkpt>
      <trkpt lat="46.17834" lon="6.16576">
        <ele>461.82</ele>
        <time>2020-10-08T11:13:53Z</time>
      </trkpt>
      <trkpt lat="46.17794" lon="6.16553">
        <ele>462.7</ele>
        <time>2020-10-08T11:14:02Z</time>
      </trkpt>
      <trkpt lat="46.17754" lon="6.16531">
        <ele>463.33</ele>
        <time>2020-10-08T11:14:10Z</time>
      </trkpt>
      <trkpt lat="46.17711" lon="6.16575">
        <ele>461.96</ele>
        <time>2020-10-08T11:14:26Z</time>
      </trkpt>
      <trkpt lat="46.17676" lon="6.16614">
        <ele>461.87</ele>
        <time>2020-10-08T11:14:36Z</time>
      </trkpt>
      <trkpt lat="46.17649" lon="6.16648">
        <ele>461.5</ele>
        <time>2020-10-08T11:15:00Z</time>
      </trkpt>
      <trkpt lat="46.17636" lon="6.16707">
        <ele>461.81</ele>
        <time>2020-10-08T11:15:20Z</time>
      </trkpt>
      <trkpt lat="46.17607" lon="6.16791">
        <ele>462.52</ele>
        <time>2020-10-08T11:15:33Z</time>
      </trkpt>
      <trkpt lat="46.17586" lon="6.16835">
        <ele>462.42</ele>
        <time>2020-10-08T11:15:44Z</time>
      </trkpt>
      <trkpt lat="46.17549" lon="6.16849">
        <ele>462.37</ele>
        <time>2020-10-08T11:15:54Z</time>
      </trkpt>
      <trkpt lat="46.17492" lon="6.1685">
        <ele>462.62</ele>
        <time>2020-10-08T11:16:10Z</time>
      </trkpt>
      <trkpt lat="46.17455" lon="6.1685">
        <ele>464.37</ele>
        <time>2020-10-08T11:16:49Z</time>
      </trkpt>
      <trkpt lat="46.17441" lon="6.16901">
        <ele>464.67</ele>
        <time>2020-10-08T11:16:59Z</time>
      </trkpt>
      <trkpt lat="46.17413" lon="6.16939">
        <ele>466.33</ele>
        <time>2020-10-08T11:17:18Z</time>
      </trkpt>
      <trkpt lat="46.17417" lon="6.1699">
        <ele>467.01</ele>
        <time>2020-10-08T11:21:35Z</time>
      </trkpt>
      <trkpt lat="46.17436" lon="6.17046">
        <ele>467.01</ele>
        <time>2020-10-08T11:21:44Z</time>
      </trkpt>
      <trkpt lat="46.17446" lon="6.17104">
        <ele>467.01</ele>
        <time>2020-10-08T11:21:52Z</time>
      </trkpt>
      <trkpt lat="46.17463" lon="6.17192">
        <ele>467.01</ele>
        <time>2020-10-08T11:22:05Z</time>
      </trkpt>
      <trkpt lat="46.17473" lon="6.17247">
        <ele>467.01</ele>
        <time>2020-10-08T11:22:11Z</time>
      </trkpt>
      <trkpt lat="46.17484" lon="6.17302">
        <ele>467.01</ele>
        <time>2020-10-08T11:22:17Z</time>
      </trkpt>
      <trkpt lat="46.17495" lon="6.17355">
        <ele>467.01</ele>
        <time>2020-10-08T11:22:23Z</time>
      </trkpt>
      <trkpt lat="46.17517" lon="6.1745">
        <ele>467.01</ele>
        <time>2020-10-08T11:22:35Z</time>
      </trkpt>
      <trkpt lat="46.17531" lon="6.17506">
        <ele>467.01</ele>
        <time>2020-10-08T11:22:43Z</time>
      </trkpt>
      <trkpt lat="46.17546" lon="6.17566">
        <ele>464.54</ele>
        <time>2020-10-08T11:22:50Z</time>
      </trkpt>
      <trkpt lat="46.17569" lon="6.17649">
        <ele>463.98</ele>
        <time>2020-10-08T11:23:02Z</time>
      </trkpt>
      <trkpt lat="46.17587" lon="6.17711">
        <ele>463.55</ele>
        <time>2020-10-08T11:23:10Z</time>
      </trkpt>
      <trkpt lat="46.17602" lon="6.17765">
        <ele>463.45</ele>
        <time>2020-10-08T11:23:16Z</time>
      </trkpt>
      <trkpt lat="46.17618" lon="6.17817">
        <ele>463.15</ele>
        <time>2020-10-08T11:23:22Z</time>
      </trkpt>
      <trkpt lat="46.17644" lon="6.17899">
        <ele>462.82</ele>
        <time>2020-10-08T11:23:31Z</time>
      </trkpt>
      <trkpt lat="46.1766" lon="6.17949">
        <ele>462.41</ele>
        <time>2020-10-08T11:23:37Z</time>
      </trkpt>
      <trkpt lat="46.17682" lon="6.17985">
        <ele>462.1</ele>
        <time>2020-10-08T11:23:45Z</time>
      </trkpt>
      <trkpt lat="46.1774" lon="6.18001">
        <ele>459.94</ele>
        <time>2020-10-08T11:23:59Z</time>
      </trkpt>
      <trkpt lat="46.17772" lon="6.18041">
        <ele>458.79</ele>
        <time>2020-10-08T11:24:04Z</time>
      </trkpt>
      <trkpt lat="46.17796" lon="6.18084">
        <ele>457.39</ele>
        <time>2020-10-08T11:24:08Z</time>
      </trkpt>
      <trkpt lat="46.1782" lon="6.18131">
        <ele>455.85</ele>
        <time>2020-10-08T11:24:12Z</time>
      </trkpt>
      <trkpt lat="46.1786" lon="6.18204">
        <ele>452.52</ele>
        <time>2020-10-08T11:24:18Z</time>
      </trkpt>
      <trkpt lat="46.17887" lon="6.1825">
        <ele>450.35</ele>
        <time>2020-10-08T11:24:22Z</time>
      </trkpt>
      <trkpt lat="46.1792" lon="6.18273">
        <ele>448.64</ele>
        <time>2020-10-08T11:24:26Z</time>
      </trkpt>
      <trkpt lat="46.17984" lon="6.18287">
        <ele>446.78</ele>
        <time>2020-10-08T11:24:36Z</time>
      </trkpt>
      <trkpt lat="46.18011" lon="6.18335">
        <ele>445.7</ele>
        <time>2020-10-08T11:24:45Z</time>
      </trkpt>
      <trkpt lat="46.18031" lon="6.18383">
        <ele>445.26</ele>
        <time>2020-10-08T11:24:51Z</time>
      </trkpt>
      <trkpt lat="46.18042" lon="6.18441">
        <ele>444.33</ele>
        <time>2020-10-08T11:24:57Z</time>
      </trkpt>
      <trkpt lat="46.18042" lon="6.18529">
        <ele>443.46</ele>
        <time>2020-10-08T11:25:07Z</time>
      </trkpt>
      <trkpt lat="46.18039" lon="6.18592">
        <ele>443.17</ele>
        <time>2020-10-08T11:25:15Z</time>
      </trkpt>
      <trkpt lat="46.18042" lon="6.18652">
        <ele>443.06</ele>
        <time>2020-10-08T11:25:22Z</time>
      </trkpt>
      <trkpt lat="46.18062" lon="6.18726">
        <ele>443.03</ele>
        <time>2020-10-08T11:25:31Z</time>
      </trkpt>
      <trkpt lat="46.18085" lon="6.18769">
        <ele>442.86</ele>
        <time>2020-10-08T11:25:37Z</time>
      </trkpt>
      <trkpt lat="46.18115" lon="6.18802">
        <ele>442.85</ele>
        <time>2020-10-08T11:25:43Z</time>
      </trkpt>
      <trkpt lat="46.18167" lon="6.18842">
        <ele>442.89</ele>
        <time>2020-10-08T11:25:57Z</time>
      </trkpt>
      <trkpt lat="46.1816" lon="6.18897">
        <ele>442.98</ele>
        <time>2020-10-08T11:26:07Z</time>
      </trkpt>
      <trkpt lat="46.18129" lon="6.18983">
        <ele>396.1</ele>
        <time>2020-10-08T11:26:15Z</time>
      </trkpt>
      <trkpt lat="46.1813" lon="6.19001">
        <ele>396.4</ele>
        <time>2020-10-08T11:26:27Z</time>
      </trkpt>
      <trkpt lat="46.18129" lon="6.19016">
        <ele>396.5</ele>
        <time>2020-10-08T11:26:47Z</time>
      </trkpt>
      <trkpt lat="46.18122" lon="6.19032">
        <ele>396.5</ele>
        <time>2020-10-08T11:26:57Z</time>
      </trkpt>
      <trkpt lat="46.18123" lon="6.19051">
        <ele>396.9</ele>
        <time>2020-10-08T11:27:06Z</time>
      </trkpt>
      <trkpt lat="46.18121" lon="6.19069">
        <ele>397</ele>
        <time>2020-10-08T11:27:19Z</time>
      </trkpt>
      <trkpt lat="46.18117" lon="6.19084">
        <ele>397</ele>
        <time>2020-10-08T11:27:28Z</time>
      </trkpt>
      <trkpt lat="46.18118" lon="6.1911">
        <ele>396.8</ele>
        <time>2020-10-08T11:27:40Z</time>
      </trkpt>
      <trkpt lat="46.18119" lon="6.19124">
        <ele>396.7</ele>
        <time>2020-10-08T11:28:03Z</time>
      </trkpt>
      <trkpt lat="46.18145" lon="6.19169">
        <ele>396.7</ele>
        <time>2020-10-08T11:28:41Z</time>
      </trkpt>
      <trkpt lat="46.18119" lon="6.19171">
        <ele>445.5</ele>
        <time>2020-10-08T11:28:52Z</time>
      </trkpt>
      <trkpt lat="46.18078" lon="6.19175">
        <ele>444.57</ele>
        <time>2020-10-08T11:29:00Z</time>
      </trkpt>
      <trkpt lat="46.18037" lon="6.19175">
        <ele>444.13</ele>
        <time>2020-10-08T11:29:08Z</time>
      </trkpt>
      <trkpt lat="46.17996" lon="6.1918">
        <ele>443.71</ele>
        <time>2020-10-08T11:29:16Z</time>
      </trkpt>
      <trkpt lat="46.17957" lon="6.19241">
        <ele>442.64</ele>
        <time>2020-10-08T11:29:28Z</time>
      </trkpt>
      <trkpt lat="46.17918" lon="6.19267">
        <ele>442.19</ele>
        <time>2020-10-08T11:29:37Z</time>
      </trkpt>
      <trkpt lat="46.17871" lon="6.19267">
        <ele>441.9</ele>
        <time>2020-10-08T11:29:45Z</time>
      </trkpt>
      <trkpt lat="46.17811" lon="6.19259">
        <ele>441.94</ele>
        <time>2020-10-08T11:29:56Z</time>
      </trkpt>
      <trkpt lat="46.17771" lon="6.19252">
        <ele>441.85</ele>
        <time>2020-10-08T11:30:06Z</time>
      </trkpt>
      <trkpt lat="46.17753" lon="6.19202">
        <ele>442.22</ele>
        <time>2020-10-08T11:30:16Z</time>
      </trkpt>
      <trkpt lat="46.17761" lon="6.19146">
        <ele>442.2</ele>
        <time>2020-10-08T11:30:23Z</time>
      </trkpt>
      <trkpt lat="46.17752" lon="6.19062">
        <ele>442.16</ele>
        <time>2020-10-08T11:30:33Z</time>
      </trkpt>
      <trkpt lat="46.17738" lon="6.19009">
        <ele>441.76</ele>
        <time>2020-10-08T11:30:42Z</time>
      </trkpt>
      <trkpt lat="46.17732" lon="6.18949">
        <ele>441.7</ele>
        <time>2020-10-08T11:30:51Z</time>
      </trkpt>
      <trkpt lat="46.1773" lon="6.1886">
        <ele>441.78</ele>
        <time>2020-10-08T11:31:04Z</time>
      </trkpt>
      <trkpt lat="46.17741" lon="6.18807">
        <ele>441.78</ele>
        <time>2020-10-08T11:31:14Z</time>
      </trkpt>
      <trkpt lat="46.17704" lon="6.18804">
        <ele>441.78</ele>
        <time>2020-10-08T11:31:25Z</time>
      </trkpt>
      <trkpt lat="46.17662" lon="6.18819">
        <ele>441.78</ele>
        <time>2020-10-08T11:31:59Z</time>
      </trkpt>
      <trkpt lat="46.17587" lon="6.18869">
        <ele>441.78</ele>
        <time>2020-10-08T11:33:05Z</time>
      </trkpt>
      <trkpt lat="46.17545" lon="6.18904">
        <ele>441.78</ele>
        <time>2020-10-08T11:33:16Z</time>
      </trkpt>
      <trkpt lat="46.17507" lon="6.18945">
        <ele>441.78</ele>
        <time>2020-10-08T11:33:25Z</time>
      </trkpt>
      <trkpt lat="46.17455" lon="6.19015">
        <ele>441.78</ele>
        <time>2020-10-08T11:33:37Z</time>
      </trkpt>
      <trkpt lat="46.17434" lon="6.19071">
        <ele>441.78</ele>
        <time>2020-10-08T11:33:48Z</time>
      </trkpt>
      <trkpt lat="46.17426" lon="6.19133">
        <ele>441.78</ele>
        <time>2020-10-08T11:33:59Z</time>
      </trkpt>
      <trkpt lat="46.17434" lon="6.19194">
        <ele>441.78</ele>
        <time>2020-10-08T11:34:07Z</time>
      </trkpt>
      <trkpt lat="46.17462" lon="6.19281">
        <ele>441.78</ele>
        <time>2020-10-08T11:34:22Z</time>
      </trkpt>
      <trkpt lat="46.17479" lon="6.19346">
        <ele>441.78</ele>
        <time>2020-10-08T11:34:31Z</time>
      </trkpt>
      <trkpt lat="46.17502" lon="6.19403">
        <ele>441.78</ele>
        <time>2020-10-08T11:34:42Z</time>
      </trkpt>
      <trkpt lat="46.17535" lon="6.19482">
        <ele>441.78</ele>
        <time>2020-10-08T11:34:58Z</time>
      </trkpt>
      <trkpt lat="46.17562" lon="6.19536">
        <ele>441.78</ele>
        <time>2020-10-08T11:35:08Z</time>
      </trkpt>
      <trkpt lat="46.17565" lon="6.19604">
        <ele>441.78</ele>
        <time>2020-10-08T11:35:18Z</time>
      </trkpt>
      <trkpt lat="46.17559" lon="6.19671">
        <ele>441.78</ele>
        <time>2020-10-08T11:35:29Z</time>
      </trkpt>
      <trkpt lat="46.17542" lon="6.19776">
        <ele>441.78</ele>
        <time>2020-10-08T11:35:43Z</time>
      </trkpt>
      <trkpt lat="46.1753" lon="6.1984">
        <ele>441.78</ele>
        <time>2020-10-08T11:35:52Z</time>
      </trkpt>
      <trkpt lat="46.17508" lon="6.19905">
        <ele>441.78</ele>
        <time>2020-10-08T11:36:00Z</time>
      </trkpt>
      <trkpt lat="46.17484" lon="6.1999">
        <ele>441.78</ele>
        <time>2020-10-08T11:36:15Z</time>
      </trkpt>
      <trkpt lat="46.17471" lon="6.2005">
        <ele>441.78</ele>
        <time>2020-10-08T11:36:23Z</time>
      </trkpt>
      <trkpt lat="46.17461" lon="6.20124">
        <ele>441.78</ele>
        <time>2020-10-08T11:36:31Z</time>
      </trkpt>
      <trkpt lat="46.17457" lon="6.2018">
        <ele>441.78</ele>
        <time>2020-10-08T11:36:40Z</time>
      </trkpt>
      <trkpt lat="46.1746" lon="6.20269">
        <ele>441.78</ele>
        <time>2020-10-08T11:36:53Z</time>
      </trkpt>
      <trkpt lat="46.1746" lon="6.20324">
        <ele>441.78</ele>
        <time>2020-10-08T11:37:02Z</time>
      </trkpt>
      <trkpt lat="46.17463" lon="6.20383">
        <ele>441.78</ele>
        <time>2020-10-08T11:37:12Z</time>
      </trkpt>
      <trkpt lat="46.1746" lon="6.20466">
        <ele>441.78</ele>
        <time>2020-10-08T11:37:24Z</time>
      </trkpt>
      <trkpt lat="46.17472" lon="6.20517">
        <ele>441.78</ele>
        <time>2020-10-08T11:37:34Z</time>
      </trkpt>
      <trkpt lat="46.17473" lon="6.20578">
        <ele>441.78</ele>
        <time>2020-10-08T11:37:43Z</time>
      </trkpt>
      <trkpt lat="46.17474" lon="6.20643">
        <ele>441.78</ele>
        <time>2020-10-08T11:37:51Z</time>
      </trkpt>
      <trkpt lat="46.17472" lon="6.20732">
        <ele>444.93</ele>
        <time>2020-10-08T11:38:06Z</time>
      </trkpt>
      <trkpt lat="46.17477" lon="6.20795">
        <ele>444.76</ele>
        <time>2020-10-08T11:38:16Z</time>
      </trkpt>
      <trkpt lat="46.1748" lon="6.2086">
        <ele>444.98</ele>
        <time>2020-10-08T11:38:24Z</time>
      </trkpt>
      <trkpt lat="46.17483" lon="6.2095">
        <ele>445.53</ele>
        <time>2020-10-08T11:38:39Z</time>
      </trkpt>
      <trkpt lat="46.17484" lon="6.21011">
        <ele>445.88</ele>
        <time>2020-10-08T11:38:48Z</time>
      </trkpt>
      <trkpt lat="46.17485" lon="6.21069">
        <ele>446.1</ele>
        <time>2020-10-08T11:38:57Z</time>
      </trkpt>
      <trkpt lat="46.17487" lon="6.21126">
        <ele>446.82</ele>
        <time>2020-10-08T11:39:05Z</time>
      </trkpt>
      <trkpt lat="46.17486" lon="6.21214">
        <ele>446.42</ele>
        <time>2020-10-08T11:39:22Z</time>
      </trkpt>
      <trkpt lat="46.17492" lon="6.2128">
        <ele>444.28</ele>
        <time>2020-10-08T11:39:52Z</time>
      </trkpt>
      <trkpt lat="46.17502" lon="6.21338">
        <ele>445.4</ele>
        <time>2020-10-08T11:40:01Z</time>
      </trkpt>
      <trkpt lat="46.17521" lon="6.21431">
        <ele>445.78</ele>
        <time>2020-10-08T11:40:17Z</time>
      </trkpt>
      <trkpt lat="46.17538" lon="6.21497">
        <ele>446.27</ele>
        <time>2020-10-08T11:40:25Z</time>
      </trkpt>
      <trkpt lat="46.17554" lon="6.21558">
        <ele>446.74</ele>
        <time>2020-10-08T11:40:36Z</time>
      </trkpt>
      <trkpt lat="46.1757" lon="6.2162">
        <ele>447.22</ele>
        <time>2020-10-08T11:40:46Z</time>
      </trkpt>
      <trkpt lat="46.17611" lon="6.21694">
        <ele>448.25</ele>
        <time>2020-10-08T11:41:02Z</time>
      </trkpt>
      <trkpt lat="46.17651" lon="6.21722">
        <ele>449</ele>
        <time>2020-10-08T11:41:11Z</time>
      </trkpt>
      <trkpt lat="46.17684" lon="6.21754">
        <ele>449.11</ele>
        <time>2020-10-08T11:41:24Z</time>
      </trkpt>
      <trkpt lat="46.17735" lon="6.21804">
        <ele>449.39</ele>
        <time>2020-10-08T11:41:39Z</time>
      </trkpt>
      <trkpt lat="46.17772" lon="6.21834">
        <ele>448.01</ele>
        <time>2020-10-08T11:41:47Z</time>
      </trkpt>
      <trkpt lat="46.17813" lon="6.21859">
        <ele>448.44</ele>
        <time>2020-10-08T11:41:54Z</time>
      </trkpt>
      <trkpt lat="46.17851" lon="6.21881">
        <ele>448.86</ele>
        <time>2020-10-08T11:42:03Z</time>
      </trkpt>
      <trkpt lat="46.17909" lon="6.2192">
        <ele>448.92</ele>
        <time>2020-10-08T11:42:13Z</time>
      </trkpt>
      <trkpt lat="46.17953" lon="6.21948">
        <ele>448.92</ele>
        <time>2020-10-08T11:42:21Z</time>
      </trkpt>
      <trkpt lat="46.17992" lon="6.2197">
        <ele>448.92</ele>
        <time>2020-10-08T11:42:31Z</time>
      </trkpt>
      <trkpt lat="46.18062" lon="6.22005">
        <ele>448.92</ele>
        <time>2020-10-08T11:42:44Z</time>
      </trkpt>
      <trkpt lat="46.18104" lon="6.22026">
        <ele>448.92</ele>
        <time>2020-10-08T11:42:53Z</time>
      </trkpt>
      <trkpt lat="46.18141" lon="6.22047">
        <ele>448.92</ele>
        <time>2020-10-08T11:43:02Z</time>
      </trkpt>
      <trkpt lat="46.18181" lon="6.22066">
        <ele>448.92</ele>
        <time>2020-10-08T11:43:11Z</time>
      </trkpt>
      <trkpt lat="46.18234" lon="6.22098">
        <ele>448.92</ele>
        <time>2020-10-08T11:43:26Z</time>
      </trkpt>
      <trkpt lat="46.18274" lon="6.22122">
        <ele>448.92</ele>
        <time>2020-10-08T11:43:35Z</time>
      </trkpt>
      <trkpt lat="46.18314" lon="6.22144">
        <ele>448.92</ele>
        <time>2020-10-08T11:43:43Z</time>
      </trkpt>
      <trkpt lat="46.18367" lon="6.22197">
        <ele>448.92</ele>
        <time>2020-10-08T11:44:00Z</time>
      </trkpt>
      <trkpt lat="46.18401" lon="6.22233">
        <ele>448.92</ele>
        <time>2020-10-08T11:44:08Z</time>
      </trkpt>
      <trkpt lat="46.1843" lon="6.22275">
        <ele>448.92</ele>
        <time>2020-10-08T11:44:16Z</time>
      </trkpt>
      <trkpt lat="46.18458" lon="6.22323">
        <ele>448.92</ele>
        <time>2020-10-08T11:44:26Z</time>
      </trkpt>
      <trkpt lat="46.18493" lon="6.22386">
        <ele>448.92</ele>
        <time>2020-10-08T11:44:41Z</time>
      </trkpt>
      <trkpt lat="46.18508" lon="6.22447">
        <ele>448.92</ele>
        <time>2020-10-08T11:44:51Z</time>
      </trkpt>
      <trkpt lat="46.18514" lon="6.22508">
        <ele>448.92</ele>
        <time>2020-10-08T11:44:59Z</time>
      </trkpt>
      <trkpt lat="46.18514" lon="6.22599">
        <ele>448.92</ele>
        <time>2020-10-08T11:45:12Z</time>
      </trkpt>
      <trkpt lat="46.18511" lon="6.22655">
        <ele>448.92</ele>
        <time>2020-10-08T11:45:21Z</time>
      </trkpt>
      <trkpt lat="46.18499" lon="6.22711">
        <ele>448.92</ele>
        <time>2020-10-08T11:45:35Z</time>
      </trkpt>
      <trkpt lat="46.18481" lon="6.22766">
        <ele>448.92</ele>
        <time>2020-10-08T11:45:44Z</time>
      </trkpt>
      <trkpt lat="46.18453" lon="6.22839">
        <ele>448.92</ele>
        <time>2020-10-08T11:46:02Z</time>
      </trkpt>
      <trkpt lat="46.18436" lon="6.22887">
        <ele>452.05</ele>
        <time>2020-10-08T11:46:45Z</time>
      </trkpt>
      <trkpt lat="46.18472" lon="6.229">
        <ele>452.59</ele>
        <time>2020-10-08T11:47:02Z</time>
      </trkpt>
      <trkpt lat="46.18527" lon="6.22944">
        <ele>453.78</ele>
        <time>2020-10-08T11:47:16Z</time>
      </trkpt>
      <trkpt lat="46.18564" lon="6.22964">
        <ele>454.6</ele>
        <time>2020-10-08T11:47:24Z</time>
      </trkpt>
      <trkpt lat="46.18605" lon="6.22965">
        <ele>455.93</ele>
        <time>2020-10-08T11:47:33Z</time>
      </trkpt>
      <trkpt lat="46.18646" lon="6.22961">
        <ele>457.54</ele>
        <time>2020-10-08T11:47:43Z</time>
      </trkpt>
      <trkpt lat="46.18697" lon="6.22932">
        <ele>459.47</ele>
        <time>2020-10-08T11:47:55Z</time>
      </trkpt>
      <trkpt lat="46.18732" lon="6.22896">
        <ele>459.69</ele>
        <time>2020-10-08T11:48:04Z</time>
      </trkpt>
      <trkpt lat="46.18766" lon="6.22858">
        <ele>459.44</ele>
        <time>2020-10-08T11:48:12Z</time>
      </trkpt>
      <trkpt lat="46.18815" lon="6.22808">
        <ele>459</ele>
        <time>2020-10-08T11:48:26Z</time>
      </trkpt>
      <trkpt lat="46.18849" lon="6.22779">
        <ele>459.17</ele>
        <time>2020-10-08T11:48:35Z</time>
      </trkpt>
      <trkpt lat="46.18886" lon="6.22758">
        <ele>460.17</ele>
        <time>2020-10-08T11:48:44Z</time>
      </trkpt>
      <trkpt lat="46.18927" lon="6.2274">
        <ele>462.16</ele>
        <time>2020-10-08T11:48:54Z</time>
      </trkpt>
      <trkpt lat="46.18989" lon="6.22733">
        <ele>461.86</ele>
        <time>2020-10-08T11:49:10Z</time>
      </trkpt>
      <trkpt lat="46.19029" lon="6.22736">
        <ele>462.84</ele>
        <time>2020-10-08T11:49:20Z</time>
      </trkpt>
      <trkpt lat="46.19067" lon="6.22742">
        <ele>466.25</ele>
        <time>2020-10-08T11:49:33Z</time>
      </trkpt>
      <trkpt lat="46.19125" lon="6.22752">
        <ele>471.99</ele>
        <time>2020-10-08T11:49:52Z</time>
      </trkpt>
      <trkpt lat="46.19163" lon="6.22761">
        <ele>475.02</ele>
        <time>2020-10-08T11:50:02Z</time>
      </trkpt>
      <trkpt lat="46.19202" lon="6.22769">
        <ele>476.13</ele>
        <time>2020-10-08T11:50:13Z</time>
      </trkpt>
      <trkpt lat="46.19243" lon="6.22779">
        <ele>476.42</ele>
        <time>2020-10-08T11:50:24Z</time>
      </trkpt>
      <trkpt lat="46.19291" lon="6.22785">
        <ele>429.3</ele>
      </trkpt>
      <trkpt lat="46.19291" lon="6.2281">
        <ele>428</ele>
        <time>2020-10-08T11:50:49Z</time>
      </trkpt>
      <trkpt lat="46.19286" lon="6.22878">
        <ele>431</ele>
        <time>2020-10-08T11:51:33Z</time>
      </trkpt>
      <trkpt lat="46.19327" lon="6.22867">
        <ele>478.1</ele>
        <time>2020-10-08T11:51:44Z</time>
      </trkpt>
      <trkpt lat="46.19377" lon="6.22842">
        <ele>478.09</ele>
        <time>2020-10-08T11:52:27Z</time>
      </trkpt>
      <trkpt lat="46.19413" lon="6.22818">
        <ele>479.06</ele>
        <time>2020-10-08T11:52:37Z</time>
      </trkpt>
      <trkpt lat="46.19453" lon="6.22795">
        <ele>477.12</ele>
        <time>2020-10-08T11:53:29Z</time>
      </trkpt>
      <trkpt lat="46.19491" lon="6.22773">
        <ele>477.03</ele>
        <time>2020-10-08T11:53:38Z</time>
      </trkpt>
      <trkpt lat="46.19551" lon="6.22756">
        <ele>476.9</ele>
        <time>2020-10-08T11:53:51Z</time>
      </trkpt>
      <trkpt lat="46.19592" lon="6.22756">
        <ele>476.79</ele>
        <time>2020-10-08T11:54:00Z</time>
      </trkpt>
      <trkpt lat="46.19635" lon="6.22765">
        <ele>476.65</ele>
        <time>2020-10-08T11:54:08Z</time>
      </trkpt>
      <trkpt lat="46.19673" lon="6.22839">
        <ele>477.03</ele>
        <time>2020-10-08T11:54:21Z</time>
      </trkpt>
      <trkpt lat="46.197" lon="6.22886">
        <ele>477.03</ele>
        <time>2020-10-08T11:54:29Z</time>
      </trkpt>
      <trkpt lat="46.19725" lon="6.22933">
        <ele>477.03</ele>
        <time>2020-10-08T11:54:36Z</time>
      </trkpt>
      <trkpt lat="46.19751" lon="6.22981">
        <ele>477.03</ele>
        <time>2020-10-08T11:54:43Z</time>
      </trkpt>
      <trkpt lat="46.19788" lon="6.23048">
        <ele>477.03</ele>
        <time>2020-10-08T11:54:56Z</time>
      </trkpt>
      <trkpt lat="46.19815" lon="6.23098">
        <ele>477.03</ele>
        <time>2020-10-08T11:55:04Z</time>
      </trkpt>
      <trkpt lat="46.19824" lon="6.23116">
        <ele>433.1</ele>
      </trkpt>
      <trkpt lat="46.19835" lon="6.2315">
        <ele>433.4</ele>
        <time>2020-10-08T11:55:13Z</time>
      </trkpt>
      <trkpt lat="46.19846" lon="6.23196">
        <ele>433.6</ele>
      </trkpt>
      <trkpt lat="46.19859" lon="6.23234">
        <ele>434</ele>
        <time>2020-10-08T11:55:25Z</time>
      </trkpt>
      <trkpt lat="46.19872" lon="6.23288">
        <ele>434</ele>
        <time>2020-10-08T11:55:31Z</time>
      </trkpt>
      <trkpt lat="46.19885" lon="6.23346">
        <ele>481.41</ele>
        <time>2020-10-08T11:55:39Z</time>
      </trkpt>
      <trkpt lat="46.19908" lon="6.234">
        <ele>481.56</ele>
        <time>2020-10-08T11:55:47Z</time>
      </trkpt>
      <trkpt lat="46.19935" lon="6.23472">
        <ele>481.24</ele>
        <time>2020-10-08T11:55:56Z</time>
      </trkpt>
      <trkpt lat="46.19956" lon="6.23522">
        <ele>480.8</ele>
        <time>2020-10-08T11:56:04Z</time>
      </trkpt>
      <trkpt lat="46.1998" lon="6.23569">
        <ele>480.96</ele>
        <time>2020-10-08T11:56:12Z</time>
      </trkpt>
      <trkpt lat="46.19998" lon="6.23591">
        <ele>435</ele>
        <time>2020-10-08T11:56:59Z</time>
      </trkpt>
      <trkpt lat="46.20043" lon="6.23556">
        <ele>434.5</ele>
        <time>2020-10-08T12:01:10Z</time>
      </trkpt>
      <trkpt lat="46.2009" lon="6.23515">
        <ele>434</ele>
        <time>2020-10-08T12:01:27Z</time>
      </trkpt>
      <trkpt lat="46.20126" lon="6.23576">
        <ele>482.14</ele>
        <time>2020-10-08T12:01:37Z</time>
      </trkpt>
      <trkpt lat="46.20153" lon="6.2362">
        <ele>482.17</ele>
        <time>2020-10-08T12:01:47Z</time>
      </trkpt>
      <trkpt lat="46.20194" lon="6.23689">
        <ele>482.49</ele>
        <time>2020-10-08T12:01:59Z</time>
      </trkpt>
      <trkpt lat="46.20222" lon="6.23735">
        <ele>482.76</ele>
        <time>2020-10-08T12:02:06Z</time>
      </trkpt>
      <trkpt lat="46.20247" lon="6.23779">
        <ele>483.24</ele>
        <time>2020-10-08T12:02:13Z</time>
      </trkpt>
      <trkpt lat="46.20272" lon="6.23824">
        <ele>483.49</ele>
        <time>2020-10-08T12:02:21Z</time>
      </trkpt>
      <trkpt lat="46.20309" lon="6.2389">
        <ele>483.93</ele>
        <time>2020-10-08T12:02:31Z</time>
      </trkpt>
      <trkpt lat="46.20342" lon="6.23935">
        <ele>484</ele>
        <time>2020-10-08T12:02:38Z</time>
      </trkpt>
      <trkpt lat="46.20371" lon="6.23975">
        <ele>484.14</ele>
        <time>2020-10-08T12:02:44Z</time>
      </trkpt>
      <trkpt lat="46.20406" lon="6.24049">
        <ele>484.29</ele>
        <time>2020-10-08T12:02:57Z</time>
      </trkpt>
      <trkpt lat="46.20412" lon="6.24074">
        <ele>436.2</ele>
      </trkpt>
      <trkpt lat="46.20423" lon="6.24105">
        <ele>484.42</ele>
        <time>2020-10-08T12:03:06Z</time>
      </trkpt>
      <trkpt lat="46.20416" lon="6.24164">
        <ele>485.02</ele>
        <time>2020-10-08T12:03:14Z</time>
      </trkpt>
      <trkpt lat="46.20411" lon="6.24224">
        <ele>485.96</ele>
        <time>2020-10-08T12:03:22Z</time>
      </trkpt>
      <trkpt lat="46.20405" lon="6.24313">
        <ele>488.71</ele>
        <time>2020-10-08T12:03:35Z</time>
      </trkpt>
      <trkpt lat="46.20402" lon="6.24374">
        <ele>490.06</ele>
        <time>2020-10-08T12:03:45Z</time>
      </trkpt>
      <trkpt lat="46.20401" lon="6.24406">
        <ele>439</ele>
      </trkpt>
      <trkpt lat="46.20388" lon="6.24429">
        <ele>492.3</ele>
        <time>2020-10-08T12:03:57Z</time>
      </trkpt>
      <trkpt lat="46.20367" lon="6.24463">
        <ele>441.5</ele>
        <time>2020-10-08T12:04:12Z</time>
      </trkpt>
      <trkpt lat="46.20377" lon="6.24565">
        <ele>491.05</ele>
        <time>2020-10-08T12:04:19Z</time>
      </trkpt>
      <trkpt lat="46.20366" lon="6.24623">
        <ele>489.67</ele>
        <time>2020-10-08T12:04:25Z</time>
      </trkpt>
      <trkpt lat="46.20345" lon="6.24675">
        <ele>488.57</ele>
        <time>2020-10-08T12:04:32Z</time>
      </trkpt>
      <trkpt lat="46.20323" lon="6.24743">
        <ele>488.57</ele>
        <time>2020-10-08T12:05:09Z</time>
      </trkpt>
      <trkpt lat="46.20309" lon="6.24796">
        <ele>488.57</ele>
        <time>2020-10-08T12:05:19Z</time>
      </trkpt>
      <trkpt lat="46.20298" lon="6.24852">
        <ele>488.57</ele>
        <time>2020-10-08T12:05:29Z</time>
      </trkpt>
      <trkpt lat="46.20277" lon="6.24897">
        <ele>442.3</ele>
      </trkpt>
      <trkpt lat="46.20287" lon="6.24945">
        <ele>443.4</ele>
      </trkpt>
      <trkpt lat="46.20287" lon="6.24993">
        <ele>444.2</ele>
        <time>2020-10-08T12:05:48Z</time>
      </trkpt>
      <trkpt lat="46.2033" lon="6.24989">
        <ele>442.1</ele>
      </trkpt>
      <trkpt lat="46.20341" lon="6.24993">
        <ele>441.5</ele>
      </trkpt>
      <trkpt lat="46.20336" lon="6.25008">
        <ele>442</ele>
        <time>2020-10-08T12:05:59Z</time>
      </trkpt>
      <trkpt lat="46.20345" lon="6.2504">
        <ele>441.9</ele>
        <time>2020-10-08T12:06:10Z</time>
      </trkpt>
      <trkpt lat="46.20351" lon="6.25086">
        <ele>441.8</ele>
        <time>2020-10-08T12:06:22Z</time>
      </trkpt>
      <trkpt lat="46.20349" lon="6.25129">
        <ele>442.4</ele>
        <time>2020-10-08T12:06:39Z</time>
      </trkpt>
      <trkpt lat="46.20345" lon="6.25162">
        <ele>443.1</ele>
        <time>2020-10-08T12:06:48Z</time>
      </trkpt>
      <trkpt lat="46.20334" lon="6.25212">
        <ele>445.9</ele>
        <time>2020-10-08T12:06:57Z</time>
      </trkpt>
      <trkpt lat="46.20343" lon="6.25235">
        <ele>445</ele>
      </trkpt>
      <trkpt lat="46.2037" lon="6.25251">
        <ele>444.4</ele>
        <time>2020-10-08T12:07:09Z</time>
      </trkpt>
      <trkpt lat="46.2041" lon="6.25307">
        <ele>492.9</ele>
        <time>2020-10-08T12:07:34Z</time>
      </trkpt>
      <trkpt lat="46.20449" lon="6.25327">
        <ele>493.72</ele>
        <time>2020-10-08T12:07:44Z</time>
      </trkpt>
      <trkpt lat="46.20495" lon="6.25337">
        <ele>493.76</ele>
        <time>2020-10-08T12:07:56Z</time>
      </trkpt>
      <trkpt lat="46.20528" lon="6.25385">
        <ele>445.7</ele>
      </trkpt>
      <trkpt lat="46.20549" lon="6.2539">
        <ele>493.69</ele>
        <time>2020-10-08T12:08:12Z</time>
      </trkpt>
      <trkpt lat="46.20592" lon="6.25399">
        <ele>494</ele>
        <time>2020-10-08T12:08:21Z</time>
      </trkpt>
      <trkpt lat="46.2063" lon="6.25431">
        <ele>493.95</ele>
        <time>2020-10-08T12:08:31Z</time>
      </trkpt>
      <trkpt lat="46.20671" lon="6.25488">
        <ele>494.33</ele>
        <time>2020-10-08T12:08:47Z</time>
      </trkpt>
      <trkpt lat="46.20704" lon="6.25501">
        <ele>446.3</ele>
        <time>2020-10-08T12:08:58Z</time>
      </trkpt>
      <trkpt lat="46.20702" lon="6.25482">
        <ele>445.7</ele>
        <time>2020-10-08T12:09:10Z</time>
      </trkpt>
      <trkpt lat="46.2075" lon="6.25545">
        <ele>445.1</ele>
      </trkpt>
      <trkpt lat="46.2076" lon="6.25539">
        <ele>445.9</ele>
        <time>2020-10-08T12:09:20Z</time>
      </trkpt>
      <trkpt lat="46.20764" lon="6.25523">
        <ele>446.5</ele>
        <time>2020-10-08T12:09:33Z</time>
      </trkpt>
      <trkpt lat="46.20887" lon="6.25614">
        <ele>448.1</ele>
        <time>2020-10-08T12:09:47Z</time>
      </trkpt>
      <trkpt lat="46.20897" lon="6.25625">
        <ele>450.4</ele>
        <time>2020-10-08T12:10:01Z</time>
      </trkpt>
      <trkpt lat="46.20895" lon="6.25694">
        <ele>449</ele>
        <time>2020-10-08T12:10:14Z</time>
      </trkpt>
      <trkpt lat="46.20906" lon="6.25744">
        <ele>448.6</ele>
        <time>2020-10-08T12:10:25Z</time>
      </trkpt>
      <trkpt lat="46.20906" lon="6.25838">
        <ele>448.9</ele>
        <time>2020-10-08T12:10:33Z</time>
      </trkpt>
      <trkpt lat="46.20925" lon="6.25899">
        <ele>449.3</ele>
        <time>2020-10-08T12:10:43Z</time>
      </trkpt>
      <trkpt lat="46.20941" lon="6.25986">
        <ele>449</ele>
        <time>2020-10-08T12:11:00Z</time>
      </trkpt>
      <trkpt lat="46.20947" lon="6.2606">
        <ele>450.8</ele>
        <time>2020-10-08T12:11:13Z</time>
      </trkpt>
      <trkpt lat="46.20949" lon="6.26165">
        <ele>451.1</ele>
        <time>2020-10-08T12:11:25Z</time>
      </trkpt>
      <trkpt lat="46.20956" lon="6.26227">
        <ele>453.1</ele>
        <time>2020-10-08T12:11:45Z</time>
      </trkpt>
      <trkpt lat="46.20976" lon="6.2631">
        <ele>504.48</ele>
        <time>2020-10-08T12:11:59Z</time>
      </trkpt>
      <trkpt lat="46.20991" lon="6.26361">
        <ele>508.99</ele>
        <time>2020-10-08T12:12:14Z</time>
      </trkpt>
      <trkpt lat="46.2102" lon="6.26392">
        <ele>514.73</ele>
        <time>2020-10-08T12:12:33Z</time>
      </trkpt>
      <trkpt lat="46.21058" lon="6.26365">
        <ele>472.1</ele>
        <time>2020-10-08T12:12:56Z</time>
      </trkpt>
      <trkpt lat="46.21084" lon="6.26409">
        <ele>473</ele>
        <time>2020-10-08T12:13:11Z</time>
      </trkpt>
      <trkpt lat="46.21052" lon="6.26461">
        <ele>471.4</ele>
        <time>2020-10-08T12:13:22Z</time>
      </trkpt>
      <trkpt lat="46.21073" lon="6.26545">
        <ele>519.7</ele>
        <time>2020-10-08T12:13:35Z</time>
      </trkpt>
      <trkpt lat="46.21103" lon="6.26595">
        <ele>517.17</ele>
        <time>2020-10-08T12:13:41Z</time>
      </trkpt>
      <trkpt lat="46.21139" lon="6.2664">
        <ele>517.17</ele>
        <time>2020-10-08T12:13:47Z</time>
      </trkpt>
      <trkpt lat="46.21177" lon="6.26666">
        <ele>517.17</ele>
        <time>2020-10-08T12:13:54Z</time>
      </trkpt>
      <trkpt lat="46.21222" lon="6.26727">
        <ele>517.17</ele>
        <time>2020-10-08T12:14:11Z</time>
      </trkpt>
      <trkpt lat="46.21244" lon="6.26778">
        <ele>517.17</ele>
        <time>2020-10-08T12:14:22Z</time>
      </trkpt>
      <trkpt lat="46.21263" lon="6.26811">
        <ele>464.9</ele>
      </trkpt>
      <trkpt lat="46.21254" lon="6.26831">
        <ele>517.17</ele>
        <time>2020-10-08T12:14:36Z</time>
      </trkpt>
      <trkpt lat="46.21219" lon="6.26892">
        <ele>513.3</ele>
        <time>2020-10-08T12:15:25Z</time>
      </trkpt>
      <trkpt lat="46.21218" lon="6.26955">
        <ele>511.71</ele>
        <time>2020-10-08T12:15:31Z</time>
      </trkpt>
      <trkpt lat="46.21208" lon="6.27014">
        <ele>508.78</ele>
        <time>2020-10-08T12:15:39Z</time>
      </trkpt>
      <trkpt lat="46.21209" lon="6.27064">
        <ele>506.94</ele>
        <time>2020-10-08T12:15:51Z</time>
      </trkpt>
      <trkpt lat="46.21248" lon="6.27124">
        <ele>510.51</ele>
        <time>2020-10-08T12:16:17Z</time>
      </trkpt>
      <trkpt lat="46.21284" lon="6.27136">
        <ele>515.2</ele>
        <time>2020-10-08T12:16:35Z</time>
      </trkpt>
      <trkpt lat="46.21294" lon="6.27181">
        <ele>519.4</ele>
        <time>2020-10-08T12:16:53Z</time>
      </trkpt>
      <trkpt lat="46.21324" lon="6.27232">
        <ele>520.87</ele>
        <time>2020-10-08T12:22:18Z</time>
      </trkpt>
      <trkpt lat="46.21347" lon="6.27276">
        <ele>520.87</ele>
        <time>2020-10-08T12:22:35Z</time>
      </trkpt>
      <trkpt lat="46.21354" lon="6.2733">
        <ele>532.66</ele>
        <time>2020-10-08T12:22:51Z</time>
      </trkpt>
      <trkpt lat="46.21354" lon="6.27385">
        <ele>533.93</ele>
        <time>2020-10-08T12:23:08Z</time>
      </trkpt>
      <trkpt lat="46.2136" lon="6.27468">
        <ele>536.3</ele>
        <time>2020-10-08T12:23:28Z</time>
      </trkpt>
      <trkpt lat="46.21361" lon="6.2752">
        <ele>537.03</ele>
        <time>2020-10-08T12:23:43Z</time>
      </trkpt>
      <trkpt lat="46.21363" lon="6.27577">
        <ele>537.67</ele>
        <time>2020-10-08T12:23:56Z</time>
      </trkpt>
      <trkpt lat="46.21363" lon="6.27641">
        <ele>490</ele>
        <time>2020-10-08T12:24:14Z</time>
      </trkpt>
      <trkpt lat="46.21318" lon="6.27617">
        <ele>539.8</ele>
        <time>2020-10-08T12:24:25Z</time>
      </trkpt>
      <trkpt lat="46.21279" lon="6.27598">
        <ele>539.98</ele>
        <time>2020-10-08T12:24:35Z</time>
      </trkpt>
      <trkpt lat="46.21243" lon="6.27575">
        <ele>539.6</ele>
        <time>2020-10-08T12:24:43Z</time>
      </trkpt>
      <trkpt lat="46.21201" lon="6.27559">
        <ele>488.1</ele>
      </trkpt>
      <trkpt lat="46.21197" lon="6.27573">
        <ele>487.5</ele>
      </trkpt>
      <trkpt lat="46.21202" lon="6.27588">
        <ele>538.67</ele>
        <time>2020-10-08T12:24:58Z</time>
      </trkpt>
      <trkpt lat="46.21222" lon="6.27642">
        <ele>537.24</ele>
        <time>2020-10-08T12:25:06Z</time>
      </trkpt>
      <trkpt lat="46.21243" lon="6.27696">
        <ele>533.74</ele>
        <time>2020-10-08T12:25:29Z</time>
      </trkpt>
      <trkpt lat="46.21267" lon="6.27778">
        <ele>530.45</ele>
        <time>2020-10-08T12:25:43Z</time>
      </trkpt>
      <trkpt lat="46.21275" lon="6.27835">
        <ele>525.98</ele>
        <time>2020-10-08T12:25:52Z</time>
      </trkpt>
      <trkpt lat="46.21269" lon="6.27899">
        <ele>518.19</ele>
        <time>2020-10-08T12:26:26Z</time>
      </trkpt>
      <trkpt lat="46.21265" lon="6.27963">
        <ele>516.74</ele>
        <time>2020-10-08T12:26:35Z</time>
      </trkpt>
      <trkpt lat="46.21288" lon="6.28039">
        <ele>515.14</ele>
        <time>2020-10-08T12:26:50Z</time>
      </trkpt>
      <trkpt lat="46.21323" lon="6.28085">
        <ele>466.6</ele>
        <time>2020-10-08T12:27:02Z</time>
      </trkpt>
      <trkpt lat="46.21323" lon="6.28139">
        <ele>465.3</ele>
        <time>2020-10-08T12:27:15Z</time>
      </trkpt>
      <trkpt lat="46.21364" lon="6.28175">
        <ele>515.83</ele>
        <time>2020-10-08T12:27:32Z</time>
      </trkpt>
      <trkpt lat="46.21398" lon="6.28205">
        <ele>515.88</ele>
        <time>2020-10-08T12:27:43Z</time>
      </trkpt>
      <trkpt lat="46.21429" lon="6.28227">
        <ele>517.92</ele>
        <time>2020-10-08T12:27:57Z</time>
      </trkpt>
      <trkpt lat="46.21424" lon="6.2831">
        <ele>467.3</ele>
        <time>2020-10-08T12:28:11Z</time>
      </trkpt>
      <trkpt lat="46.21448" lon="6.28359">
        <ele>517.7</ele>
        <time>2020-10-08T12:28:27Z</time>
      </trkpt>
      <trkpt lat="46.21465" lon="6.28418">
        <ele>517.93</ele>
        <time>2020-10-08T12:28:35Z</time>
      </trkpt>
      <trkpt lat="46.21472" lon="6.28475">
        <ele>518.14</ele>
        <time>2020-10-08T12:28:43Z</time>
      </trkpt>
      <trkpt lat="46.21485" lon="6.28557">
        <ele>518.82</ele>
        <time>2020-10-08T12:28:58Z</time>
      </trkpt>
      <trkpt lat="46.21496" lon="6.28614">
        <ele>519.2</ele>
        <time>2020-10-08T12:29:10Z</time>
      </trkpt>
      <trkpt lat="46.21513" lon="6.28668">
        <ele>519.84</ele>
        <time>2020-10-08T12:29:21Z</time>
      </trkpt>
      <trkpt lat="46.21533" lon="6.28722">
        <ele>520.25</ele>
        <time>2020-10-08T12:29:30Z</time>
      </trkpt>
      <trkpt lat="46.21566" lon="6.28799">
        <ele>521.02</ele>
        <time>2020-10-08T12:29:44Z</time>
      </trkpt>
      <trkpt lat="46.21589" lon="6.28845">
        <ele>521.29</ele>
        <time>2020-10-08T12:29:52Z</time>
      </trkpt>
      <trkpt lat="46.21613" lon="6.28892">
        <ele>522.05</ele>
        <time>2020-10-08T12:30:01Z</time>
      </trkpt>
      <trkpt lat="46.2165" lon="6.28962">
        <ele>522.61</ele>
        <time>2020-10-08T12:30:13Z</time>
      </trkpt>
      <trkpt lat="46.21673" lon="6.2901">
        <ele>522.98</ele>
        <time>2020-10-08T12:30:21Z</time>
      </trkpt>
      <trkpt lat="46.21697" lon="6.29056">
        <ele>523.31</ele>
        <time>2020-10-08T12:30:31Z</time>
      </trkpt>
      <trkpt lat="46.21722" lon="6.29108">
        <ele>523.8</ele>
        <time>2020-10-08T12:30:41Z</time>
      </trkpt>
      <trkpt lat="46.21754" lon="6.2918">
        <ele>524.84</ele>
        <time>2020-10-08T12:30:54Z</time>
      </trkpt>
      <trkpt lat="46.21762" lon="6.29241">
        <ele>525.43</ele>
        <time>2020-10-08T12:31:05Z</time>
      </trkpt>
      <trkpt lat="46.21755" lon="6.29295">
        <ele>526.08</ele>
        <time>2020-10-08T12:31:13Z</time>
      </trkpt>
      <trkpt lat="46.21749" lon="6.2933">
        <ele>477</ele>
      </trkpt>
      <trkpt lat="46.21762" lon="6.29383">
        <ele>527.2</ele>
        <time>2020-10-08T12:31:25Z</time>
      </trkpt>
      <trkpt lat="46.21792" lon="6.2943">
        <ele>527.85</ele>
        <time>2020-10-08T12:31:33Z</time>
      </trkpt>
      <trkpt lat="46.21835" lon="6.29493">
        <ele>478</ele>
        <time>2020-10-08T12:31:43Z</time>
      </trkpt>
      <trkpt lat="46.21825" lon="6.2951">
        <ele>478.6</ele>
      </trkpt>
      <trkpt lat="46.21834" lon="6.29522">
        <ele>528.35</ele>
        <time>2020-10-08T12:31:57Z</time>
      </trkpt>
      <trkpt lat="46.21865" lon="6.2959">
        <ele>528.85</ele>
        <time>2020-10-08T12:32:10Z</time>
      </trkpt>
      <trkpt lat="46.21896" lon="6.29631">
        <ele>529.41</ele>
        <time>2020-10-08T12:32:18Z</time>
      </trkpt>
      <trkpt lat="46.21917" lon="6.29677">
        <ele>529.93</ele>
        <time>2020-10-08T12:32:27Z</time>
      </trkpt>
      <trkpt lat="46.2196" lon="6.29744">
        <ele>530.5</ele>
        <time>2020-10-08T12:32:48Z</time>
      </trkpt>
      <trkpt lat="46.21988" lon="6.29781">
        <ele>530.92</ele>
        <time>2020-10-08T12:32:56Z</time>
      </trkpt>
      <trkpt lat="46.22023" lon="6.29806">
        <ele>531.45</ele>
        <time>2020-10-08T12:33:08Z</time>
      </trkpt>
      <trkpt lat="46.22064" lon="6.2982">
        <ele>531.82</ele>
        <time>2020-10-08T12:33:19Z</time>
      </trkpt>
      <trkpt lat="46.22122" lon="6.29859">
        <ele>532.8</ele>
        <time>2020-10-08T12:33:35Z</time>
      </trkpt>
      <trkpt lat="46.22155" lon="6.29899">
        <ele>533.37</ele>
        <time>2020-10-08T12:33:46Z</time>
      </trkpt>
      <trkpt lat="46.22189" lon="6.29927">
        <ele>533.95</ele>
        <time>2020-10-08T12:33:55Z</time>
      </trkpt>
      <trkpt lat="46.22243" lon="6.29968">
        <ele>535.48</ele>
        <time>2020-10-08T12:34:13Z</time>
      </trkpt>
      <trkpt lat="46.22276" lon="6.29993">
        <ele>536.92</ele>
        <time>2020-10-08T12:34:25Z</time>
      </trkpt>
      <trkpt lat="46.22313" lon="6.30021">
        <ele>538.05</ele>
        <time>2020-10-08T12:34:37Z</time>
      </trkpt>
      <trkpt lat="46.22344" lon="6.30056">
        <ele>539.48</ele>
        <time>2020-10-08T12:34:50Z</time>
      </trkpt>
      <trkpt lat="46.2239" lon="6.30104">
        <ele>541.34</ele>
        <time>2020-10-08T12:35:06Z</time>
      </trkpt>
      <trkpt lat="46.22425" lon="6.3013">
        <ele>542.38</ele>
        <time>2020-10-08T12:35:18Z</time>
      </trkpt>
      <trkpt lat="46.22462" lon="6.30153">
        <ele>544.1</ele>
        <time>2020-10-08T12:35:32Z</time>
      </trkpt>
      <trkpt lat="46.22518" lon="6.30188">
        <ele>545.27</ele>
        <time>2020-10-08T12:35:49Z</time>
      </trkpt>
      <trkpt lat="46.22565" lon="6.30219">
        <ele>495.2</ele>
        <time>2020-10-08T12:35:57Z</time>
      </trkpt>
      <trkpt lat="46.22585" lon="6.30202">
        <ele>494.1</ele>
      </trkpt>
      <trkpt lat="46.226" lon="6.30219">
        <ele>544.22</ele>
        <time>2020-10-08T12:36:05Z</time>
      </trkpt>
      <trkpt lat="46.22632" lon="6.30245">
        <ele>543.69</ele>
        <time>2020-10-08T12:36:14Z</time>
      </trkpt>
      <trkpt lat="46.22687" lon="6.30283">
        <ele>544.04</ele>
        <time>2020-10-08T12:36:28Z</time>
      </trkpt>
      <trkpt lat="46.22724" lon="6.30306">
        <ele>544.34</ele>
        <time>2020-10-08T12:36:38Z</time>
      </trkpt>
      <trkpt lat="46.22761" lon="6.30334">
        <ele>544.49</ele>
        <time>2020-10-08T12:36:46Z</time>
      </trkpt>
      <trkpt lat="46.22816" lon="6.30372">
        <ele>544.64</ele>
        <time>2020-10-08T12:36:59Z</time>
      </trkpt>
      <trkpt lat="46.22856" lon="6.30396">
        <ele>544.6</ele>
        <time>2020-10-08T12:37:08Z</time>
      </trkpt>
      <trkpt lat="46.22893" lon="6.30418">
        <ele>544.6</ele>
        <time>2020-10-08T12:37:16Z</time>
      </trkpt>
      <trkpt lat="46.2293" lon="6.30437">
        <ele>544.6</ele>
        <time>2020-10-08T12:37:26Z</time>
      </trkpt>
      <trkpt lat="46.22985" lon="6.30468">
        <ele>544.6</ele>
        <time>2020-10-08T12:37:40Z</time>
      </trkpt>
      <trkpt lat="46.2302" lon="6.30489">
        <ele>544.6</ele>
        <time>2020-10-08T12:37:49Z</time>
      </trkpt>
      <trkpt lat="46.23056" lon="6.30515">
        <ele>544.6</ele>
        <time>2020-10-08T12:37:58Z</time>
      </trkpt>
      <trkpt lat="46.2311" lon="6.30545">
        <ele>548.48</ele>
        <time>2020-10-08T12:38:12Z</time>
      </trkpt>
      <trkpt lat="46.23145" lon="6.30573">
        <ele>549.03</ele>
        <time>2020-10-08T12:38:21Z</time>
      </trkpt>
      <trkpt lat="46.23184" lon="6.30598">
        <ele>549.75</ele>
        <time>2020-10-08T12:38:32Z</time>
      </trkpt>
      <trkpt lat="46.23223" lon="6.30627">
        <ele>550.74</ele>
        <time>2020-10-08T12:38:43Z</time>
      </trkpt>
      <trkpt lat="46.2328" lon="6.30671">
        <ele>552.21</ele>
        <time>2020-10-08T12:38:59Z</time>
      </trkpt>
      <trkpt lat="46.2331" lon="6.30703">
        <ele>553.03</ele>
        <time>2020-10-08T12:39:08Z</time>
      </trkpt>
      <trkpt lat="46.23314" lon="6.30739">
        <ele>504.4</ele>
        <time>2020-10-08T12:39:27Z</time>
      </trkpt>
      <trkpt lat="46.23346" lon="6.30683">
        <ele>557.44</ele>
        <time>2020-10-08T12:40:00Z</time>
      </trkpt>
      <trkpt lat="46.23376" lon="6.30641">
        <ele>565.41</ele>
        <time>2020-10-08T12:40:23Z</time>
      </trkpt>
      <trkpt lat="46.2339" lon="6.30628">
        <ele>520.8</ele>
      </trkpt>
      <trkpt lat="46.23412" lon="6.30634">
        <ele>570.71</ele>
        <time>2020-10-08T12:40:44Z</time>
      </trkpt>
      <trkpt lat="46.23447" lon="6.30652">
        <ele>570.94</ele>
        <time>2020-10-08T12:40:53Z</time>
      </trkpt>
      <trkpt lat="46.23502" lon="6.30704">
        <ele>569.83</ele>
        <time>2020-10-08T12:41:05Z</time>
      </trkpt>
      <trkpt lat="46.23539" lon="6.30731">
        <ele>568.83</ele>
        <time>2020-10-08T12:41:13Z</time>
      </trkpt>
      <trkpt lat="46.23575" lon="6.30745">
        <ele>568.23</ele>
        <time>2020-10-08T12:41:22Z</time>
      </trkpt>
      <trkpt lat="46.23634" lon="6.30769">
        <ele>568.22</ele>
        <time>2020-10-08T12:41:37Z</time>
      </trkpt>
      <trkpt lat="46.23674" lon="6.30779">
        <ele>568.31</ele>
        <time>2020-10-08T12:41:48Z</time>
      </trkpt>
      <trkpt lat="46.23714" lon="6.30804">
        <ele>568.67</ele>
        <time>2020-10-08T12:41:56Z</time>
      </trkpt>
      <trkpt lat="46.23752" lon="6.3082">
        <ele>569.24</ele>
        <time>2020-10-08T12:42:05Z</time>
      </trkpt>
      <trkpt lat="46.23808" lon="6.30842">
        <ele>569.24</ele>
        <time>2020-10-08T12:42:20Z</time>
      </trkpt>
      <trkpt lat="46.23846" lon="6.30874">
        <ele>569.24</ele>
        <time>2020-10-08T12:42:28Z</time>
      </trkpt>
      <trkpt lat="46.23882" lon="6.30902">
        <ele>569.24</ele>
        <time>2020-10-08T12:42:36Z</time>
      </trkpt>
      <trkpt lat="46.23934" lon="6.30934">
        <ele>569.24</ele>
        <time>2020-10-08T12:42:50Z</time>
      </trkpt>
      <trkpt lat="46.23967" lon="6.30964">
        <ele>569.24</ele>
        <time>2020-10-08T12:43:01Z</time>
      </trkpt>
      <trkpt lat="46.23988" lon="6.31011">
        <ele>569.24</ele>
        <time>2020-10-08T12:43:10Z</time>
      </trkpt>
      <trkpt lat="46.24017" lon="6.31047">
        <ele>569.24</ele>
        <time>2020-10-08T12:43:18Z</time>
      </trkpt>
      <trkpt lat="46.24072" lon="6.31086">
        <ele>569.24</ele>
        <time>2020-10-08T12:43:32Z</time>
      </trkpt>
      <trkpt lat="46.24108" lon="6.3111">
        <ele>569.24</ele>
        <time>2020-10-08T12:43:46Z</time>
      </trkpt>
      <trkpt lat="46.24144" lon="6.31129">
        <ele>569.24</ele>
        <time>2020-10-08T12:44:01Z</time>
      </trkpt>
      <trkpt lat="46.24203" lon="6.31177">
        <ele>562.94</ele>
        <time>2020-10-08T12:44:13Z</time>
      </trkpt>
      <trkpt lat="46.24212" lon="6.31129">
        <ele>561.95</ele>
        <time>2020-10-08T12:44:25Z</time>
      </trkpt>
      <trkpt lat="46.2423" lon="6.31072">
        <ele>562.93</ele>
        <time>2020-10-08T12:44:34Z</time>
      </trkpt>
      <trkpt lat="46.2425" lon="6.31022">
        <ele>564.34</ele>
        <time>2020-10-08T12:44:42Z</time>
      </trkpt>
      <trkpt lat="46.24276" lon="6.30957">
        <ele>515.1</ele>
        <time>2020-10-08T12:45:02Z</time>
      </trkpt>
      <trkpt lat="46.24174" lon="6.30871">
        <ele>517.3</ele>
        <time>2020-10-08T12:45:10Z</time>
      </trkpt>
      <trkpt lat="46.24163" lon="6.30809">
        <ele>516.1</ele>
        <time>2020-10-08T12:45:17Z</time>
      </trkpt>
      <trkpt lat="46.24187" lon="6.30728">
        <ele>514.8</ele>
        <time>2020-10-08T12:45:33Z</time>
      </trkpt>
      <trkpt lat="46.24344" lon="6.30795">
        <ele>515</ele>
        <time>2020-10-08T12:45:41Z</time>
      </trkpt>
      <trkpt lat="46.24396" lon="6.30802">
        <ele>514.8</ele>
        <time>2020-10-08T12:45:49Z</time>
      </trkpt>
      <trkpt lat="46.24435" lon="6.30765">
        <ele>515</ele>
        <time>2020-10-08T12:45:59Z</time>
      </trkpt>
      <trkpt lat="46.24537" lon="6.30798">
        <ele>515</ele>
        <time>2020-10-08T12:46:11Z</time>
      </trkpt>
      <trkpt lat="46.24621" lon="6.30862">
        <ele>516</ele>
        <time>2020-10-08T12:46:19Z</time>
      </trkpt>
      <trkpt lat="46.24653" lon="6.30866">
        <ele>516</ele>
        <time>2020-10-08T12:46:28Z</time>
      </trkpt>
      <trkpt lat="46.24733" lon="6.30893">
        <ele>568.83</ele>
        <time>2020-10-08T12:46:39Z</time>
      </trkpt>
      <trkpt lat="46.24783" lon="6.30884">
        <ele>568.91</ele>
        <time>2020-10-08T12:46:47Z</time>
      </trkpt>
      <trkpt lat="46.24821" lon="6.30902">
        <ele>568.42</ele>
        <time>2020-10-08T12:46:55Z</time>
      </trkpt>
      <trkpt lat="46.24839" lon="6.30831">
        <ele>514</ele>
        <time>2020-10-08T12:47:02Z</time>
      </trkpt>
      <trkpt lat="46.24856" lon="6.30745">
        <ele>512.7</ele>
        <time>2020-10-08T12:47:12Z</time>
      </trkpt>
      <trkpt lat="46.2488" lon="6.30647">
        <ele>508.3</ele>
        <time>2020-10-08T12:47:20Z</time>
      </trkpt>
      <trkpt lat="46.2491" lon="6.30564">
        <ele>505.5</ele>
        <time>2020-10-08T12:47:28Z</time>
      </trkpt>
      <trkpt lat="46.24951" lon="6.30417">
        <ele>498.8</ele>
        <time>2020-10-08T12:47:42Z</time>
      </trkpt>
      <trkpt lat="46.25129" lon="6.3055">
        <ele>499.7</ele>
        <time>2020-10-08T12:47:49Z</time>
      </trkpt>
      <trkpt lat="46.25189" lon="6.30543">
        <ele>498.9</ele>
        <time>2020-10-08T12:47:55Z</time>
      </trkpt>
      <trkpt lat="46.25221" lon="6.30419">
        <ele>495.1</ele>
        <time>2020-10-08T12:48:01Z</time>
      </trkpt>
      <trkpt lat="46.25256" lon="6.30293">
        <ele>491.6</ele>
        <time>2020-10-08T12:48:11Z</time>
      </trkpt>
      <trkpt lat="46.25309" lon="6.30199">
        <ele>489.1</ele>
        <time>2020-10-08T12:48:19Z</time>
      </trkpt>
      <trkpt lat="46.2533" lon="6.30156">
        <ele>489</ele>
        <time>2020-10-08T12:48:25Z</time>
      </trkpt>
      <trkpt lat="46.25391" lon="6.30036">
        <ele>486</ele>
        <time>2020-10-08T12:52:18Z</time>
      </trkpt>
      <trkpt lat="46.25432" lon="6.29928">
        <ele>484.2</ele>
        <time>2020-10-08T12:52:26Z</time>
      </trkpt>
      <trkpt lat="46.25439" lon="6.29822">
        <ele>482.6</ele>
        <time>2020-10-08T12:52:38Z</time>
      </trkpt>
      <trkpt lat="46.25446" lon="6.29743">
        <ele>481</ele>
        <time>2020-10-08T12:52:46Z</time>
      </trkpt>
      <trkpt lat="46.25461" lon="6.2968">
        <ele>479.5</ele>
        <time>2020-10-08T12:52:54Z</time>
      </trkpt>
      <trkpt lat="46.25476" lon="6.29633">
        <ele>478.7</ele>
        <time>2020-10-08T12:53:51Z</time>
      </trkpt>
      <trkpt lat="46.25513" lon="6.29487">
        <ele>474.5</ele>
        <time>2020-10-08T12:56:54Z</time>
      </trkpt>
      <trkpt lat="46.25558" lon="6.29332">
        <ele>472</ele>
        <time>2020-10-08T12:57:23Z</time>
      </trkpt>
      <trkpt lat="46.25559" lon="6.2927">
        <ele>471.7</ele>
        <time>2020-10-08T12:57:31Z</time>
      </trkpt>
      <trkpt lat="46.25488" lon="6.29169">
        <ele>471.5</ele>
        <time>2020-10-08T12:57:40Z</time>
      </trkpt>
      <trkpt lat="46.2541" lon="6.29122">
        <ele>471.1</ele>
        <time>2020-10-08T12:57:54Z</time>
      </trkpt>
      <trkpt lat="46.25272" lon="6.28975">
        <ele>472</ele>
        <time>2020-10-08T12:58:02Z</time>
      </trkpt>
      <trkpt lat="46.25186" lon="6.28921">
        <ele>472</ele>
        <time>2020-10-08T12:58:14Z</time>
      </trkpt>
      <trkpt lat="46.25127" lon="6.28863">
        <ele>472</ele>
        <time>2020-10-08T12:59:02Z</time>
      </trkpt>
      <trkpt lat="46.25057" lon="6.28793">
        <ele>473</ele>
        <time>2020-10-08T13:03:38Z</time>
      </trkpt>
      <trkpt lat="46.2498" lon="6.2866">
        <ele>474.7</ele>
        <time>2020-10-08T13:03:47Z</time>
      </trkpt>
      <trkpt lat="46.24855" lon="6.28584">
        <ele>477</ele>
        <time>2020-10-08T13:04:01Z</time>
      </trkpt>
      <trkpt lat="46.24779" lon="6.2854">
        <ele>478</ele>
        <time>2020-10-08T13:04:09Z</time>
      </trkpt>
      <trkpt lat="46.24712" lon="6.28479">
        <ele>479</ele>
      </trkpt>
      <trkpt lat="46.24531" lon="6.28125">
        <ele>478.9</ele>
        <time>2020-10-08T13:04:19Z</time>
      </trkpt>
      <trkpt lat="46.25046" lon="6.27504">
        <ele>464.4</ele>
        <time>2020-10-08T13:04:29Z</time>
      </trkpt>
      <trkpt lat="46.24916" lon="6.27229">
        <ele>463</ele>
        <time>2020-10-08T13:04:36Z</time>
      </trkpt>
      <trkpt lat="46.24915" lon="6.27167">
        <ele>463</ele>
        <time>2020-10-08T13:04:46Z</time>
      </trkpt>
      <trkpt lat="46.24848" lon="6.27012">
        <ele>462.5</ele>
      </trkpt>
      <trkpt lat="46.24817" lon="6.2691">
        <ele>462</ele>
        <time>2020-10-08T13:04:58Z</time>
      </trkpt>
      <trkpt lat="46.24739" lon="6.26696">
        <ele>461</ele>
        <time>2020-10-08T13:05:09Z</time>
      </trkpt>
      <trkpt lat="46.24671" lon="6.26548">
        <ele>460</ele>
        <time>2020-10-08T13:05:17Z</time>
      </trkpt>
      <trkpt lat="46.24825" lon="6.26279">
        <ele>461.7</ele>
        <time>2020-10-08T13:05:28Z</time>
      </trkpt>
      <trkpt lat="46.25037" lon="6.26392">
        <ele>463.3</ele>
        <time>2020-10-08T13:05:41Z</time>
      </trkpt>
      <trkpt lat="46.25088" lon="6.26311">
        <ele>462</ele>
        <time>2020-10-08T13:05:49Z</time>
      </trkpt>
      <trkpt lat="46.25119" lon="6.26216">
        <ele>459</ele>
        <time>2020-10-08T13:05:57Z</time>
      </trkpt>
      <trkpt lat="46.25169" lon="6.26026">
        <ele>459</ele>
        <time>2020-10-08T13:06:05Z</time>
      </trkpt>
      <trkpt lat="46.25209" lon="6.25937">
        <ele>458.6</ele>
        <time>2020-10-08T13:06:28Z</time>
      </trkpt>
      <trkpt lat="46.25216" lon="6.2591">
        <ele>459</ele>
      </trkpt>
      <trkpt lat="46.25259" lon="6.25845">
        <ele>458.8</ele>
        <time>2020-10-08T13:07:07Z</time>
      </trkpt>
      <trkpt lat="46.25289" lon="6.25826">
        <ele>457.2</ele>
        <time>2020-10-08T13:07:34Z</time>
      </trkpt>
      <trkpt lat="46.25373" lon="6.25913">
        <ele>453.1</ele>
        <time>2020-10-08T13:07:41Z</time>
      </trkpt>
      <trkpt lat="46.2559" lon="6.25812">
        <ele>450.8</ele>
        <time>2020-10-08T13:07:48Z</time>
      </trkpt>
      <trkpt lat="46.25693" lon="6.25776">
        <ele>448</ele>
        <time>2020-10-08T13:07:56Z</time>
      </trkpt>
      <trkpt lat="46.25792" lon="6.25767">
        <ele>446.3</ele>
        <time>2020-10-08T13:08:06Z</time>
      </trkpt>
      <trkpt lat="46.25958" lon="6.25916">
        <ele>446.5</ele>
        <time>2020-10-08T13:08:13Z</time>
      </trkpt>
      <trkpt lat="46.25863" lon="6.26068">
        <ele>450</ele>
        <time>2020-10-08T13:08:21Z</time>
      </trkpt>
      <trkpt lat="46.26002" lon="6.26224">
        <ele>447</ele>
        <time>2020-10-08T13:08:32Z</time>
      </trkpt>
      <trkpt lat="46.26034" lon="6.26124">
        <ele>446.9</ele>
        <time>2020-10-08T13:08:40Z</time>
      </trkpt>
      <trkpt lat="46.26056" lon="6.26054">
        <ele>446</ele>
        <time>2020-10-08T13:08:50Z</time>
      </trkpt>
      <trkpt lat="46.26081" lon="6.25989">
        <ele>445.1</ele>
        <time>2020-10-08T13:08:58Z</time>
      </trkpt>
      <trkpt lat="46.26103" lon="6.25946">
        <ele>444.3</ele>
        <time>2020-10-08T13:09:09Z</time>
      </trkpt>
      <trkpt lat="46.26141" lon="6.25877">
        <ele>442</ele>
        <time>2020-10-08T13:11:54Z</time>
      </trkpt>
      <trkpt lat="46.26171" lon="6.25825">
        <ele>440.8</ele>
        <time>2020-10-08T13:12:02Z</time>
      </trkpt>
      <trkpt lat="46.26246" lon="6.25711">
        <ele>439</ele>
        <time>2020-10-08T13:12:11Z</time>
      </trkpt>
      <trkpt lat="46.26343" lon="6.25669">
        <ele>438</ele>
        <time>2020-10-08T13:12:25Z</time>
      </trkpt>
      <trkpt lat="46.26497" lon="6.25766">
        <ele>437.1</ele>
        <time>2020-10-08T13:12:35Z</time>
      </trkpt>
      <trkpt lat="46.26505" lon="6.25718">
        <ele>486.66</ele>
        <time>2020-10-08T13:12:43Z</time>
      </trkpt>
      <trkpt lat="46.26513" lon="6.25681">
        <ele>435.5</ele>
        <time>2020-10-08T13:12:51Z</time>
      </trkpt>
      <trkpt lat="46.26585" lon="6.25714">
        <ele>433.9</ele>
      </trkpt>
      <trkpt lat="46.26602" lon="6.25706">
        <ele>433</ele>
        <time>2020-10-08T13:13:04Z</time>
      </trkpt>
      <trkpt lat="46.26623" lon="6.25693">
        <ele>432.2</ele>
        <time>2020-10-08T13:34:36Z</time>
      </trkpt>
      <trkpt lat="46.26649" lon="6.25716">
        <ele>430.1</ele>
        <time>2020-10-08T13:34:44Z</time>
      </trkpt>
      <trkpt lat="46.26697" lon="6.2572">
        <ele>430</ele>
        <time>2020-10-08T13:34:52Z</time>
      </trkpt>
      <trkpt lat="46.26698" lon="6.2574">
        <ele>430</ele>
        <time>2020-10-08T13:35:00Z</time>
      </trkpt>
      <trkpt lat="46.26713" lon="6.25744">
        <ele>430</ele>
      </trkpt>
      <trkpt lat="46.26813" lon="6.25808">
        <ele>431</ele>
      </trkpt>
      <trkpt lat="46.26826" lon="6.25811">
        <ele>431.1</ele>
      </trkpt>
      <trkpt lat="46.26835" lon="6.25787">
        <ele>430.4</ele>
      </trkpt>
      <trkpt lat="46.269" lon="6.2583">
        <ele>432.3</ele>
      </trkpt>
      <trkpt lat="46.26905" lon="6.25813">
        <ele>432.2</ele>
      </trkpt>
      <trkpt lat="46.26872" lon="6.25804">
        <ele>432</ele>
      </trkpt>
      <trkpt lat="46.26848" lon="6.25783">
        <ele>431.2</ele>
        <time>2020-10-08T13:35:12Z</time>
      </trkpt>
    </trkseg>
  </trk>
</gpx>